<?xml version="1.0" encoding="UTF-8" standalone="no" ?>
<gpx xmlns="http://www.topografix.com/GPX/1/1" xmlns:xsi="http://www.w3.org/2001/XMLSchema-instance" xsi:schemaLocation="http://www.topografix.com/GPX/1/1 http://www.topografix.com/GPX/1/1/gpx.xsd" version="1.1" creator="VisuGPX - https://www.visugpx.com">
  <metadata>
    <name>étape6</name>
  </metadata>
  <trk>
    <name><![CDATA[étape6_1]]></name>
    <extensions>
      <line xmlns="http://www.topografix.com/GPX/gpx_style/0/2">
        <color>0000FF</color>
        <width>4</width>
      </line>
    </extensions>
    <trkseg>
      <trkpt lat="45.38324" lon="0.29469">
        <ele>79.349792480469</ele>
        <time>2019-04-01T03:07:48.860Z</time>
      </trkpt>
      <trkpt lat="45.38104" lon="0.29287">
        <ele>75.659286499023</ele>
        <time>2019-04-01T03:08:43.136Z</time>
      </trkpt>
      <trkpt lat="45.37999" lon="0.29283">
        <ele>72.250480651855</ele>
        <time>2019-04-01T03:09:37.429Z</time>
      </trkpt>
      <trkpt lat="45.37966" lon="0.29297">
        <ele>72.017250061035</ele>
        <time>2019-04-01T03:10:31.728Z</time>
      </trkpt>
      <trkpt lat="45.37966" lon="0.29297">
        <ele>72.017150878906</ele>
        <time>2019-04-01T03:11:26.027Z</time>
      </trkpt>
      <trkpt lat="45.37951" lon="0.29354">
        <ele>72</ele>
        <time>2019-04-01T03:12:20.332Z</time>
      </trkpt>
      <trkpt lat="45.37814" lon="0.29484">
        <ele>74.804306030273</ele>
        <time>2019-04-01T03:13:14.664Z</time>
      </trkpt>
      <trkpt lat="45.3762" lon="0.29106">
        <ele>74.429298400879</ele>
        <time>2019-04-01T03:14:09.049Z</time>
      </trkpt>
      <trkpt lat="45.37495" lon="0.28871">
        <ele>75.178298950195</ele>
        <time>2019-04-01T03:15:03.467Z</time>
      </trkpt>
      <trkpt lat="45.37249" lon="0.28598">
        <ele>75.791404724121</ele>
        <time>2019-04-01T03:15:57.935Z</time>
      </trkpt>
      <trkpt lat="45.3715" lon="0.2851">
        <ele>75.783241271973</ele>
        <time>2019-04-01T03:16:52.421Z</time>
      </trkpt>
      <trkpt lat="45.37037" lon="0.28411">
        <ele>72.73796081543</ele>
        <time>2019-04-01T03:17:46.929Z</time>
      </trkpt>
      <trkpt lat="45.37005" lon="0.28383">
        <ele>72.068588256836</ele>
        <time>2019-04-01T03:18:41.443Z</time>
      </trkpt>
      <trkpt lat="45.37005" lon="0.28383">
        <ele>72.068588256836</ele>
        <time>2019-04-01T03:19:35.957Z</time>
      </trkpt>
      <trkpt lat="45.36646" lon="0.2807">
        <ele>71.664932250977</ele>
        <time>2019-04-01T03:20:30.538Z</time>
      </trkpt>
      <trkpt lat="45.36487" lon="0.27885">
        <ele>70.854286193848</ele>
        <time>2019-04-01T03:21:25.152Z</time>
      </trkpt>
      <trkpt lat="45.36015" lon="0.27401">
        <ele>73.051376342773</ele>
        <time>2019-04-01T03:22:19.859Z</time>
      </trkpt>
      <trkpt lat="45.36015" lon="0.27401">
        <ele>73.052085876465</ele>
        <time>2019-04-01T03:23:14.566Z</time>
      </trkpt>
      <trkpt lat="45.35819" lon="0.27198">
        <ele>71.519866943359</ele>
        <time>2019-04-01T03:24:09.312Z</time>
      </trkpt>
      <trkpt lat="45.35773" lon="0.27165">
        <ele>73.025039672852</ele>
        <time>2019-04-01T03:25:04.066Z</time>
      </trkpt>
      <trkpt lat="45.35706" lon="0.27119">
        <ele>73.778213500977</ele>
        <time>2019-04-01T03:25:58.832Z</time>
      </trkpt>
      <trkpt lat="45.35653" lon="0.27031">
        <ele>72.564445495605</ele>
        <time>2019-04-01T03:26:53.611Z</time>
      </trkpt>
      <trkpt lat="45.3559" lon="0.26925">
        <ele>76.955642700195</ele>
        <time>2019-04-01T03:27:48.406Z</time>
      </trkpt>
      <trkpt lat="45.35506" lon="0.26838">
        <ele>78.516906738281</ele>
        <time>2019-04-01T03:28:43.218Z</time>
      </trkpt>
      <trkpt lat="45.35372" lon="0.26757">
        <ele>80.120536804199</ele>
        <time>2019-04-01T03:29:38.053Z</time>
      </trkpt>
      <trkpt lat="45.35283" lon="0.26713">
        <ele>83.731231689453</ele>
        <time>2019-04-01T03:30:32.903Z</time>
      </trkpt>
      <trkpt lat="45.35231" lon="0.26713">
        <ele>86.228492736816</ele>
        <time>2019-04-01T03:31:27.761Z</time>
      </trkpt>
      <trkpt lat="45.35148" lon="0.26733">
        <ele>85.09538269043</ele>
        <time>2019-04-01T03:32:22.633Z</time>
      </trkpt>
      <trkpt lat="45.34822" lon="0.26671">
        <ele>84.194458007812</ele>
        <time>2019-04-01T03:33:17.557Z</time>
      </trkpt>
      <trkpt lat="45.34756" lon="0.26676">
        <ele>84.624153137207</ele>
        <time>2019-04-01T03:34:12.492Z</time>
      </trkpt>
      <trkpt lat="45.34724" lon="0.2669">
        <ele>84.5791015625</ele>
        <time>2019-04-01T03:35:07.432Z</time>
      </trkpt>
      <trkpt lat="45.34614" lon="0.26766">
        <ele>76.938835144043</ele>
        <time>2019-04-01T03:36:02.392Z</time>
      </trkpt>
      <trkpt lat="45.34533" lon="0.26814">
        <ele>68.522773742676</ele>
        <time>2019-04-01T03:36:57.366Z</time>
      </trkpt>
      <trkpt lat="45.34454" lon="0.26867">
        <ele>64.851951599121</ele>
        <time>2019-04-01T03:37:52.354Z</time>
      </trkpt>
      <trkpt lat="45.34258" lon="0.26966">
        <ele>74.446418762207</ele>
        <time>2019-04-01T03:38:47.375Z</time>
      </trkpt>
      <trkpt lat="45.33671" lon="0.27187">
        <ele>78.365692138672</ele>
        <time>2019-04-01T03:39:42.494Z</time>
      </trkpt>
      <trkpt lat="45.3365" lon="0.27195">
        <ele>79.981185913086</ele>
        <time>2019-04-01T03:40:37.616Z</time>
      </trkpt>
      <trkpt lat="45.3365" lon="0.27195">
        <ele>79.981689453125</ele>
        <time>2019-04-01T03:41:32.738Z</time>
      </trkpt>
      <trkpt lat="45.33579" lon="0.27232">
        <ele>82.121963500977</ele>
        <time>2019-04-01T03:42:27.872Z</time>
      </trkpt>
      <trkpt lat="45.33342" lon="0.274">
        <ele>69.646537780762</ele>
        <time>2019-04-01T03:43:23.048Z</time>
      </trkpt>
      <trkpt lat="45.33281" lon="0.27425">
        <ele>67.735969543457</ele>
        <time>2019-04-01T03:44:18.235Z</time>
      </trkpt>
      <trkpt lat="45.33149" lon="0.27457">
        <ele>73.567276000977</ele>
        <time>2019-04-01T03:45:13.443Z</time>
      </trkpt>
      <trkpt lat="45.32918" lon="0.27514">
        <ele>82.136474609375</ele>
        <time>2019-04-01T03:46:08.689Z</time>
      </trkpt>
      <trkpt lat="45.32865" lon="0.27533">
        <ele>82.302253723145</ele>
        <time>2019-04-01T03:47:03.943Z</time>
      </trkpt>
      <trkpt lat="45.32865" lon="0.27533">
        <ele>82.28980255127</ele>
        <time>2019-04-01T03:47:59.197Z</time>
      </trkpt>
      <trkpt lat="45.32865" lon="0.27533">
        <ele>82.289596557617</ele>
        <time>2019-04-01T03:48:54.451Z</time>
      </trkpt>
      <trkpt lat="45.32719" lon="0.27585">
        <ele>77.112464904785</ele>
        <time>2019-04-01T03:49:49.729Z</time>
      </trkpt>
      <trkpt lat="45.32681" lon="0.27599">
        <ele>76.751770019531</ele>
        <time>2019-04-01T03:50:45.014Z</time>
      </trkpt>
      <trkpt lat="45.32585" lon="0.27628">
        <ele>73.650436401367</ele>
        <time>2019-04-01T03:51:40.314Z</time>
      </trkpt>
      <trkpt lat="45.3249" lon="0.2759">
        <ele>69.086196899414</ele>
        <time>2019-04-01T03:52:35.630Z</time>
      </trkpt>
      <trkpt lat="45.32437" lon="0.27587">
        <ele>68.610763549805</ele>
        <time>2019-04-01T03:53:30.955Z</time>
      </trkpt>
      <trkpt lat="45.32437" lon="0.27587">
        <ele>68.610664367676</ele>
        <time>2019-04-01T03:54:26.280Z</time>
      </trkpt>
      <trkpt lat="45.32432" lon="0.27587">
        <ele>68.572143554688</ele>
        <time>2019-04-01T03:55:21.606Z</time>
      </trkpt>
      <trkpt lat="45.32432" lon="0.27587">
        <ele>68.572044372559</ele>
        <time>2019-04-01T03:56:16.932Z</time>
      </trkpt>
      <trkpt lat="45.32368" lon="0.27598">
        <ele>69.898506164551</ele>
        <time>2019-04-01T03:57:12.268Z</time>
      </trkpt>
      <trkpt lat="45.32238" lon="0.27654">
        <ele>70.458679199219</ele>
        <time>2019-04-01T03:58:07.626Z</time>
      </trkpt>
      <trkpt lat="45.32219" lon="0.27654">
        <ele>69.557205200195</ele>
        <time>2019-04-01T03:59:02.987Z</time>
      </trkpt>
      <trkpt lat="45.32165" lon="0.27628">
        <ele>68.34489440918</ele>
        <time>2019-04-01T03:59:58.357Z</time>
      </trkpt>
      <trkpt lat="45.32129" lon="0.27627">
        <ele>67.88533782959</ele>
        <time>2019-04-01T04:00:53.732Z</time>
      </trkpt>
      <trkpt lat="45.31992" lon="0.27683">
        <ele>68.565811157227</ele>
        <time>2019-04-01T04:01:49.130Z</time>
      </trkpt>
      <trkpt lat="45.31865" lon="0.27764">
        <ele>70.91641998291</ele>
        <time>2019-04-01T04:02:44.551Z</time>
      </trkpt>
      <trkpt lat="45.31865" lon="0.27764">
        <ele>70.916221618652</ele>
        <time>2019-04-01T04:03:39.972Z</time>
      </trkpt>
      <trkpt lat="45.31846" lon="0.27778">
        <ele>70.859870910645</ele>
        <time>2019-04-01T04:04:35.396Z</time>
      </trkpt>
      <trkpt lat="45.31794" lon="0.27844">
        <ele>68.846771240234</ele>
        <time>2019-04-01T04:05:30.831Z</time>
      </trkpt>
      <trkpt lat="45.31758" lon="0.27865">
        <ele>66.008728027344</ele>
        <time>2019-04-01T04:06:26.272Z</time>
      </trkpt>
      <trkpt lat="45.31718" lon="0.27883">
        <ele>63.336372375488</ele>
        <time>2019-04-01T04:07:21.720Z</time>
      </trkpt>
      <trkpt lat="45.31682" lon="0.27898">
        <ele>61.850177764893</ele>
        <time>2019-04-01T04:08:17.174Z</time>
      </trkpt>
      <trkpt lat="45.31656" lon="0.27898">
        <ele>60.92366027832</ele>
        <time>2019-04-01T04:09:12.632Z</time>
      </trkpt>
      <trkpt lat="45.31656" lon="0.27898">
        <ele>60.923358917236</ele>
        <time>2019-04-01T04:10:08.090Z</time>
      </trkpt>
      <trkpt lat="45.31629" lon="0.27875">
        <ele>59.920146942139</ele>
        <time>2019-04-01T04:11:03.553Z</time>
      </trkpt>
      <trkpt lat="45.31533" lon="0.27782">
        <ele>60.817546844482</ele>
        <time>2019-04-01T04:11:59.035Z</time>
      </trkpt>
      <trkpt lat="45.31486" lon="0.27754">
        <ele>60.957206726074</ele>
        <time>2019-04-01T04:12:54.525Z</time>
      </trkpt>
      <trkpt lat="45.31394" lon="0.27759">
        <ele>61.646881103516</ele>
        <time>2019-04-01T04:13:50.030Z</time>
      </trkpt>
      <trkpt lat="45.31304" lon="0.27569">
        <ele>57.382503509521</ele>
        <time>2019-04-01T04:14:45.561Z</time>
      </trkpt>
      <trkpt lat="45.31214" lon="0.27376">
        <ele>56.951263427734</ele>
        <time>2019-04-01T04:15:41.118Z</time>
      </trkpt>
      <trkpt lat="45.31214" lon="0.27376">
        <ele>56.951061248779</ele>
        <time>2019-04-01T04:16:36.675Z</time>
      </trkpt>
      <trkpt lat="45.31196" lon="0.27337">
        <ele>56.918880462646</ele>
        <time>2019-04-01T04:17:32.237Z</time>
      </trkpt>
      <trkpt lat="45.30868" lon="0.27456">
        <ele>64.528778076172</ele>
        <time>2019-04-01T04:18:27.853Z</time>
      </trkpt>
      <trkpt lat="45.3077" lon="0.27488">
        <ele>64.318428039551</ele>
        <time>2019-04-01T04:19:23.485Z</time>
      </trkpt>
      <trkpt lat="45.3059" lon="0.27629">
        <ele>72.584144592285</ele>
        <time>2019-04-01T04:20:19.150Z</time>
      </trkpt>
      <trkpt lat="45.3056" lon="0.27644">
        <ele>70.660354614258</ele>
        <time>2019-04-01T04:21:14.820Z</time>
      </trkpt>
      <trkpt lat="45.30443" lon="0.27638">
        <ele>70.16056060791</ele>
        <time>2019-04-01T04:22:10.509Z</time>
      </trkpt>
      <trkpt lat="45.30443" lon="0.27638">
        <ele>70.161666870117</ele>
        <time>2019-04-01T04:23:06.198Z</time>
      </trkpt>
      <trkpt lat="45.30295" lon="0.27553">
        <ele>73.774490356445</ele>
        <time>2019-04-01T04:24:01.913Z</time>
      </trkpt>
      <trkpt lat="45.30191" lon="0.27503">
        <ele>68.661827087402</ele>
        <time>2019-04-01T04:24:57.645Z</time>
      </trkpt>
      <trkpt lat="45.3012" lon="0.27488">
        <ele>66.519577026367</ele>
        <time>2019-04-01T04:25:53.389Z</time>
      </trkpt>
      <trkpt lat="45.29924" lon="0.27495">
        <ele>57.269424438477</ele>
        <time>2019-04-01T04:26:49.164Z</time>
      </trkpt>
      <trkpt lat="45.29893" lon="0.27501">
        <ele>55.633354187012</ele>
        <time>2019-04-01T04:27:44.944Z</time>
      </trkpt>
      <trkpt lat="45.29762" lon="0.27554">
        <ele>53.903244018555</ele>
        <time>2019-04-01T04:28:40.746Z</time>
      </trkpt>
      <trkpt lat="45.29751" lon="0.27559">
        <ele>53.851753234863</ele>
        <time>2019-04-01T04:29:36.550Z</time>
      </trkpt>
      <trkpt lat="45.29694" lon="0.27581">
        <ele>55.651573181152</ele>
        <time>2019-04-01T04:30:32.363Z</time>
      </trkpt>
      <trkpt lat="45.2966" lon="0.27612">
        <ele>58.024478912354</ele>
        <time>2019-04-01T04:31:28.183Z</time>
      </trkpt>
      <trkpt lat="45.29655" lon="0.27596">
        <ele>58.597301483154</ele>
        <time>2019-04-01T04:32:24.004Z</time>
      </trkpt>
      <trkpt lat="45.29652" lon="0.27418">
        <ele>56.837154388428</ele>
        <time>2019-04-01T04:33:19.846Z</time>
      </trkpt>
      <trkpt lat="45.29643" lon="0.27309">
        <ele>55.678234100342</ele>
        <time>2019-04-01T04:34:15.700Z</time>
      </trkpt>
      <trkpt lat="45.29621" lon="0.27242">
        <ele>56.24100112915</ele>
        <time>2019-04-01T04:35:11.562Z</time>
      </trkpt>
      <trkpt lat="45.2946" lon="0.2691">
        <ele>55.084270477295</ele>
        <time>2019-04-01T04:36:07.470Z</time>
      </trkpt>
      <trkpt lat="45.2932" lon="0.26591">
        <ele>54.758533477783</ele>
        <time>2019-04-01T04:37:03.420Z</time>
      </trkpt>
      <trkpt lat="45.29223" lon="0.26437">
        <ele>54.880512237549</ele>
        <time>2019-04-01T04:37:59.394Z</time>
      </trkpt>
      <trkpt lat="45.29189" lon="0.26348">
        <ele>55.101341247559</ele>
        <time>2019-04-01T04:38:55.379Z</time>
      </trkpt>
      <trkpt lat="45.2914" lon="0.2625">
        <ele>55.084667205811</ele>
        <time>2019-04-01T04:39:51.378Z</time>
      </trkpt>
      <trkpt lat="45.29062" lon="0.26162">
        <ele>57.640266418457</ele>
        <time>2019-04-01T04:40:47.393Z</time>
      </trkpt>
      <trkpt lat="45.29022" lon="0.26133">
        <ele>59.2428855896</ele>
        <time>2019-04-01T04:41:43.415Z</time>
      </trkpt>
      <trkpt lat="45.28983" lon="0.26123">
        <ele>60.804317474365</ele>
        <time>2019-04-01T04:42:39.443Z</time>
      </trkpt>
      <trkpt lat="45.28983" lon="0.26123">
        <ele>60.804721832275</ele>
        <time>2019-04-01T04:43:35.471Z</time>
      </trkpt>
      <trkpt lat="45.28933" lon="0.2612">
        <ele>61.523769378662</ele>
        <time>2019-04-01T04:44:31.507Z</time>
      </trkpt>
      <trkpt lat="45.28754" lon="0.26143">
        <ele>60.9782371521</ele>
        <time>2019-04-01T04:45:27.572Z</time>
      </trkpt>
      <trkpt lat="45.28724" lon="0.26147">
        <ele>61.200103759766</ele>
        <time>2019-04-01T04:46:23.642Z</time>
      </trkpt>
      <trkpt lat="45.28695" lon="0.26151">
        <ele>60.44287109375</ele>
        <time>2019-04-01T04:47:19.716Z</time>
      </trkpt>
      <trkpt lat="45.28672" lon="0.26164">
        <ele>60.11462020874</ele>
        <time>2019-04-01T04:48:15.794Z</time>
      </trkpt>
      <trkpt lat="45.28643" lon="0.26196">
        <ele>61.229507446289</ele>
        <time>2019-04-01T04:49:11.878Z</time>
      </trkpt>
      <trkpt lat="45.28096" lon="0.26899">
        <ele>53.231685638428</ele>
        <time>2019-04-01T04:50:08.080Z</time>
      </trkpt>
      <trkpt lat="45.28017" lon="0.2704">
        <ele>53.075584411621</ele>
        <time>2019-04-01T04:51:04.303Z</time>
      </trkpt>
      <trkpt lat="45.27912" lon="0.2739">
        <ele>61.315624237061</ele>
        <time>2019-04-01T04:52:00.569Z</time>
      </trkpt>
      <trkpt lat="45.27795" lon="0.27644">
        <ele>68.697326660156</ele>
        <time>2019-04-01T04:52:56.869Z</time>
      </trkpt>
      <trkpt lat="45.27776" lon="0.27676">
        <ele>68.876739501953</ele>
        <time>2019-04-01T04:53:53.174Z</time>
      </trkpt>
      <trkpt lat="45.27766" lon="0.27682">
        <ele>68.253227233887</ele>
        <time>2019-04-01T04:54:49.480Z</time>
      </trkpt>
      <trkpt lat="45.27757" lon="0.27677">
        <ele>66.985397338867</ele>
        <time>2019-04-01T04:55:45.788Z</time>
      </trkpt>
      <trkpt lat="45.27377" lon="0.27074">
        <ele>52.312629699707</ele>
        <time>2019-04-01T04:56:42.187Z</time>
      </trkpt>
      <trkpt lat="45.27263" lon="0.26892">
        <ele>53.404930114746</ele>
        <time>2019-04-01T04:57:38.614Z</time>
      </trkpt>
      <trkpt lat="45.27083" lon="0.26611">
        <ele>59.337593078613</ele>
        <time>2019-04-01T04:58:35.084Z</time>
      </trkpt>
      <trkpt lat="45.26955" lon="0.26403">
        <ele>65.239059448242</ele>
        <time>2019-04-01T04:59:31.585Z</time>
      </trkpt>
      <trkpt lat="45.26903" lon="0.26352">
        <ele>68.383438110352</ele>
        <time>2019-04-01T05:00:28.096Z</time>
      </trkpt>
      <trkpt lat="45.2695" lon="0.26204">
        <ele>69.754119873047</ele>
        <time>2019-04-01T05:01:24.625Z</time>
      </trkpt>
      <trkpt lat="45.26954" lon="0.2608">
        <ele>70.234161376953</ele>
        <time>2019-04-01T05:02:21.168Z</time>
      </trkpt>
      <trkpt lat="45.26954" lon="0.2608">
        <ele>70.233055114746</ele>
        <time>2019-04-01T05:03:17.711Z</time>
      </trkpt>
      <trkpt lat="45.26967" lon="0.26005">
        <ele>72.287719726562</ele>
        <time>2019-04-01T05:04:14.263Z</time>
      </trkpt>
      <trkpt lat="45.26988" lon="0.25959">
        <ele>73.825157165527</ele>
        <time>2019-04-01T05:05:10.821Z</time>
      </trkpt>
      <trkpt lat="45.27074" lon="0.25842">
        <ele>75.26131439209</ele>
        <time>2019-04-01T05:06:07.398Z</time>
      </trkpt>
      <trkpt lat="45.27074" lon="0.25842">
        <ele>75.260711669922</ele>
        <time>2019-04-01T05:07:03.975Z</time>
      </trkpt>
      <trkpt lat="45.27101" lon="0.258">
        <ele>77.042655944824</ele>
        <time>2019-04-01T05:08:00.559Z</time>
      </trkpt>
      <trkpt lat="45.27112" lon="0.25725">
        <ele>79.42887878418</ele>
        <time>2019-04-01T05:08:57.151Z</time>
      </trkpt>
      <trkpt lat="45.27137" lon="0.25664">
        <ele>78.970520019531</ele>
        <time>2019-04-01T05:09:53.751Z</time>
      </trkpt>
      <trkpt lat="45.27124" lon="0.25651">
        <ele>79.385330200195</ele>
        <time>2019-04-01T05:10:50.354Z</time>
      </trkpt>
      <trkpt lat="45.27116" lon="0.2564">
        <ele>79.462562561035</ele>
        <time>2019-04-01T05:11:46.959Z</time>
      </trkpt>
      <trkpt lat="45.27101" lon="0.25622">
        <ele>79.524261474609</ele>
        <time>2019-04-01T05:12:43.567Z</time>
      </trkpt>
      <trkpt lat="45.27018" lon="0.25522">
        <ele>79.753425598145</ele>
        <time>2019-04-01T05:13:40.192Z</time>
      </trkpt>
      <trkpt lat="45.26863" lon="0.2555">
        <ele>81.851089477539</ele>
        <time>2019-04-01T05:14:36.842Z</time>
      </trkpt>
      <trkpt lat="45.26574" lon="0.25725">
        <ele>90.630294799805</ele>
        <time>2019-04-01T05:15:33.543Z</time>
      </trkpt>
      <trkpt lat="45.26566" lon="0.25729">
        <ele>91.196678161621</ele>
        <time>2019-04-01T05:16:30.245Z</time>
      </trkpt>
      <trkpt lat="45.26441" lon="0.25809">
        <ele>90.265228271484</ele>
        <time>2019-04-01T05:17:26.969Z</time>
      </trkpt>
      <trkpt lat="45.26402" lon="0.25812">
        <ele>90.734977722168</ele>
        <time>2019-04-01T05:18:23.699Z</time>
      </trkpt>
      <trkpt lat="45.26384" lon="0.25813">
        <ele>90.79524230957</ele>
        <time>2019-04-01T05:19:20.432Z</time>
      </trkpt>
      <trkpt lat="45.26303" lon="0.25721">
        <ele>88.312492370605</ele>
        <time>2019-04-01T05:20:17.182Z</time>
      </trkpt>
      <trkpt lat="45.26231" lon="0.25582">
        <ele>79.747169494629</ele>
        <time>2019-04-01T05:21:13.951Z</time>
      </trkpt>
      <trkpt lat="45.26219" lon="0.25521">
        <ele>77.416770935059</ele>
        <time>2019-04-01T05:22:10.727Z</time>
      </trkpt>
      <trkpt lat="45.26189" lon="0.25465">
        <ele>74.792678833008</ele>
        <time>2019-04-01T05:23:07.511Z</time>
      </trkpt>
      <trkpt lat="45.26077" lon="0.2535">
        <ele>75.816566467285</ele>
        <time>2019-04-01T05:24:04.317Z</time>
      </trkpt>
      <trkpt lat="45.26022" lon="0.2534">
        <ele>78.51513671875</ele>
        <time>2019-04-01T05:25:01.132Z</time>
      </trkpt>
      <trkpt lat="45.25977" lon="0.2534">
        <ele>80.858283996582</ele>
        <time>2019-04-01T05:25:57.955Z</time>
      </trkpt>
      <trkpt lat="45.2587" lon="0.25269">
        <ele>85.610931396484</ele>
        <time>2019-04-01T05:26:54.796Z</time>
      </trkpt>
      <trkpt lat="45.25669" lon="0.25285">
        <ele>86.539710998535</ele>
        <time>2019-04-01T05:27:51.670Z</time>
      </trkpt>
      <trkpt lat="45.25589" lon="0.2527">
        <ele>87.412078857422</ele>
        <time>2019-04-01T05:28:48.557Z</time>
      </trkpt>
      <trkpt lat="45.25482" lon="0.25202">
        <ele>88.705795288086</ele>
        <time>2019-04-01T05:29:45.462Z</time>
      </trkpt>
      <trkpt lat="45.25332" lon="0.25215">
        <ele>87.165992736816</ele>
        <time>2019-04-01T05:30:42.391Z</time>
      </trkpt>
      <trkpt lat="45.253" lon="0.25256">
        <ele>88.421058654785</ele>
        <time>2019-04-01T05:31:39.327Z</time>
      </trkpt>
      <trkpt lat="45.25256" lon="0.25263">
        <ele>90.185180664062</ele>
        <time>2019-04-01T05:32:36.270Z</time>
      </trkpt>
      <trkpt lat="45.25223" lon="0.25256">
        <ele>91.929405212402</ele>
        <time>2019-04-01T05:33:33.219Z</time>
      </trkpt>
      <trkpt lat="45.25049" lon="0.2529">
        <ele>94.962188720703</ele>
        <time>2019-04-01T05:34:30.196Z</time>
      </trkpt>
      <trkpt lat="45.24953" lon="0.25271">
        <ele>96.238662719727</ele>
        <time>2019-04-01T05:35:27.188Z</time>
      </trkpt>
      <trkpt lat="45.24795" lon="0.25219">
        <ele>97.863258361816</ele>
        <time>2019-04-01T05:36:24.206Z</time>
      </trkpt>
      <trkpt lat="45.24614" lon="0.25158">
        <ele>100.0534286499</ele>
        <time>2019-04-01T05:37:21.254Z</time>
      </trkpt>
      <trkpt lat="45.24527" lon="0.2508">
        <ele>100.501953125</ele>
        <time>2019-04-01T05:38:18.319Z</time>
      </trkpt>
      <trkpt lat="45.24426" lon="0.24935">
        <ele>102.33024597168</ele>
        <time>2019-04-01T05:39:15.407Z</time>
      </trkpt>
      <trkpt lat="45.24425" lon="0.24934">
        <ele>102.3423538208</ele>
        <time>2019-04-01T05:40:12.495Z</time>
      </trkpt>
      <trkpt lat="45.24425" lon="0.24934">
        <ele>102.34204864502</ele>
        <time>2019-04-01T05:41:09.583Z</time>
      </trkpt>
      <trkpt lat="45.24419" lon="0.24925">
        <ele>102.56983184814</ele>
        <time>2019-04-01T05:42:06.672Z</time>
      </trkpt>
      <trkpt lat="45.24419" lon="0.24925">
        <ele>102.57013702393</ele>
        <time>2019-04-01T05:43:03.761Z</time>
      </trkpt>
      <trkpt lat="45.24386" lon="0.24878">
        <ele>103.74796295166</ele>
        <time>2019-04-01T05:44:00.858Z</time>
      </trkpt>
      <trkpt lat="45.24194" lon="0.24342">
        <ele>94.77033996582</ele>
        <time>2019-04-01T05:44:58.023Z</time>
      </trkpt>
      <trkpt lat="45.24165" lon="0.24324">
        <ele>94.911933898926</ele>
        <time>2019-04-01T05:45:55.193Z</time>
      </trkpt>
      <trkpt lat="45.23985" lon="0.24346">
        <ele>97.406776428223</ele>
        <time>2019-04-01T05:46:52.392Z</time>
      </trkpt>
      <trkpt lat="45.23906" lon="0.24356">
        <ele>101.84929656982</ele>
        <time>2019-04-01T05:47:49.603Z</time>
      </trkpt>
      <trkpt lat="45.238" lon="0.24349">
        <ele>112.03688049316</ele>
        <time>2019-04-01T05:48:46.831Z</time>
      </trkpt>
      <trkpt lat="45.23644" lon="0.24395">
        <ele>125.07925415039</ele>
        <time>2019-04-01T05:49:44.085Z</time>
      </trkpt>
      <trkpt lat="45.23584" lon="0.24443">
        <ele>123.37595367432</ele>
        <time>2019-04-01T05:50:41.350Z</time>
      </trkpt>
      <trkpt lat="45.23496" lon="0.24581">
        <ele>120.13524627686</ele>
        <time>2019-04-01T05:51:38.636Z</time>
      </trkpt>
      <trkpt lat="45.2345" lon="0.24601">
        <ele>119.3265838623</ele>
        <time>2019-04-01T05:52:35.930Z</time>
      </trkpt>
      <trkpt lat="45.23438" lon="0.24595">
        <ele>118.94041442871</ele>
        <time>2019-04-01T05:53:33.226Z</time>
      </trkpt>
      <trkpt lat="45.23413" lon="0.24583">
        <ele>118.19463348389</ele>
        <time>2019-04-01T05:54:30.526Z</time>
      </trkpt>
      <trkpt lat="45.23344" lon="0.24503">
        <ele>115.78425598145</ele>
        <time>2019-04-01T05:55:27.840Z</time>
      </trkpt>
      <trkpt lat="45.23332" lon="0.24483">
        <ele>115.25648498535</ele>
        <time>2019-04-01T05:56:25.157Z</time>
      </trkpt>
      <trkpt lat="45.23332" lon="0.24483">
        <ele>115.25728607178</ele>
        <time>2019-04-01T05:57:22.474Z</time>
      </trkpt>
      <trkpt lat="45.23274" lon="0.24386">
        <ele>113.4319229126</ele>
        <time>2019-04-01T05:58:19.805Z</time>
      </trkpt>
      <trkpt lat="45.23177" lon="0.24314">
        <ele>119.935546875</ele>
        <time>2019-04-01T05:59:17.154Z</time>
      </trkpt>
      <trkpt lat="45.231" lon="0.2421">
        <ele>121.75894927979</ele>
        <time>2019-04-01T06:00:14.520Z</time>
      </trkpt>
      <trkpt lat="45.23017" lon="0.24059">
        <ele>125.52420043945</ele>
        <time>2019-04-01T06:01:11.908Z</time>
      </trkpt>
      <trkpt lat="45.22984" lon="0.2403">
        <ele>126.48058319092</ele>
        <time>2019-04-01T06:02:09.302Z</time>
      </trkpt>
      <trkpt lat="45.22962" lon="0.24038">
        <ele>126.99547576904</ele>
        <time>2019-04-01T06:03:06.699Z</time>
      </trkpt>
      <trkpt lat="45.22925" lon="0.24078">
        <ele>123.14036560059</ele>
        <time>2019-04-01T06:04:04.104Z</time>
      </trkpt>
      <trkpt lat="45.22912" lon="0.2408">
        <ele>122.15622711182</ele>
        <time>2019-04-01T06:05:01.511Z</time>
      </trkpt>
      <trkpt lat="45.22862" lon="0.24064">
        <ele>119.7281036377</ele>
        <time>2019-04-01T06:05:58.926Z</time>
      </trkpt>
      <trkpt lat="45.22755" lon="0.24055">
        <ele>119.20664215088</ele>
        <time>2019-04-01T06:06:56.358Z</time>
      </trkpt>
      <trkpt lat="45.22724" lon="0.2408">
        <ele>119.37007141113</ele>
        <time>2019-04-01T06:07:53.796Z</time>
      </trkpt>
      <trkpt lat="45.22694" lon="0.24079">
        <ele>121.251953125</ele>
        <time>2019-04-01T06:08:51.239Z</time>
      </trkpt>
      <trkpt lat="45.22678" lon="0.24098">
        <ele>121.19248199463</ele>
        <time>2019-04-01T06:09:48.685Z</time>
      </trkpt>
      <trkpt lat="45.22641" lon="0.24095">
        <ele>123.50902557373</ele>
        <time>2019-04-01T06:10:46.137Z</time>
      </trkpt>
      <trkpt lat="45.22633" lon="0.24098">
        <ele>123.88232421875</ele>
        <time>2019-04-01T06:11:43.590Z</time>
      </trkpt>
      <trkpt lat="45.22572" lon="0.24107">
        <ele>124.75885772705</ele>
        <time>2019-04-01T06:12:41.053Z</time>
      </trkpt>
      <trkpt lat="45.22483" lon="0.24039">
        <ele>127.48782348633</ele>
        <time>2019-04-01T06:13:38.532Z</time>
      </trkpt>
      <trkpt lat="45.22461" lon="0.2403">
        <ele>127.50574493408</ele>
        <time>2019-04-01T06:14:36.015Z</time>
      </trkpt>
      <trkpt lat="45.22461" lon="0.2403">
        <ele>127.50534057617</ele>
        <time>2019-04-01T06:15:33.498Z</time>
      </trkpt>
      <trkpt lat="45.22343" lon="0.24048">
        <ele>123.30940246582</ele>
        <time>2019-04-01T06:16:31.000Z</time>
      </trkpt>
      <trkpt lat="45.22209" lon="0.24084">
        <ele>125.60762023926</ele>
        <time>2019-04-01T06:17:28.524Z</time>
      </trkpt>
      <trkpt lat="45.22007" lon="0.24068">
        <ele>126.35060882568</ele>
        <time>2019-04-01T06:18:26.080Z</time>
      </trkpt>
      <trkpt lat="45.21914" lon="0.24056">
        <ele>122.57736968994</ele>
        <time>2019-04-01T06:19:23.651Z</time>
      </trkpt>
      <trkpt lat="45.21836" lon="0.2403">
        <ele>120.86471557617</ele>
        <time>2019-04-01T06:20:21.235Z</time>
      </trkpt>
      <trkpt lat="45.21672" lon="0.23952">
        <ele>123.645652771</ele>
        <time>2019-04-01T06:21:18.847Z</time>
      </trkpt>
      <trkpt lat="45.21644" lon="0.2393">
        <ele>123.57495117188</ele>
        <time>2019-04-01T06:22:16.464Z</time>
      </trkpt>
      <trkpt lat="45.21584" lon="0.23882">
        <ele>122.88153076172</ele>
        <time>2019-04-01T06:23:14.092Z</time>
      </trkpt>
      <trkpt lat="45.21508" lon="0.2384">
        <ele>121.10961914062</ele>
        <time>2019-04-01T06:24:11.733Z</time>
      </trkpt>
      <trkpt lat="45.21422" lon="0.23794">
        <ele>119.06909942627</ele>
        <time>2019-04-01T06:25:09.389Z</time>
      </trkpt>
      <trkpt lat="45.21383" lon="0.23763">
        <ele>118.49607849121</ele>
        <time>2019-04-01T06:26:07.052Z</time>
      </trkpt>
      <trkpt lat="45.21334" lon="0.23705">
        <ele>119.53169250488</ele>
        <time>2019-04-01T06:27:04.725Z</time>
      </trkpt>
      <trkpt lat="45.21294" lon="0.23638">
        <ele>119.98558807373</ele>
        <time>2019-04-01T06:28:02.408Z</time>
      </trkpt>
      <trkpt lat="45.21266" lon="0.23537">
        <ele>119.45959472656</ele>
        <time>2019-04-01T06:29:00.103Z</time>
      </trkpt>
      <trkpt lat="45.21245" lon="0.23465">
        <ele>119.84658050537</ele>
        <time>2019-04-01T06:29:57.807Z</time>
      </trkpt>
      <trkpt lat="45.21178" lon="0.23312">
        <ele>119.57597351074</ele>
        <time>2019-04-01T06:30:55.531Z</time>
      </trkpt>
      <trkpt lat="45.21122" lon="0.23248">
        <ele>116.42226409912</ele>
        <time>2019-04-01T06:31:53.267Z</time>
      </trkpt>
      <trkpt lat="45.21093" lon="0.23238">
        <ele>114.08008575439</ele>
        <time>2019-04-01T06:32:51.008Z</time>
      </trkpt>
      <trkpt lat="45.21093" lon="0.23238">
        <ele>114.07948303223</ele>
        <time>2019-04-01T06:33:48.749Z</time>
      </trkpt>
      <trkpt lat="45.2079" lon="0.2314">
        <ele>103.79021453857</ele>
        <time>2019-04-01T06:34:46.540Z</time>
      </trkpt>
      <trkpt lat="45.20612" lon="0.23074">
        <ele>109.19644165039</ele>
        <time>2019-04-01T06:35:44.360Z</time>
      </trkpt>
      <trkpt lat="45.20438" lon="0.22975">
        <ele>102.43980407715</ele>
        <time>2019-04-01T06:36:42.210Z</time>
      </trkpt>
      <trkpt lat="45.20388" lon="0.22945">
        <ele>101.6364364624</ele>
        <time>2019-04-01T06:37:40.069Z</time>
      </trkpt>
      <trkpt lat="45.20388" lon="0.22945">
        <ele>101.63623809814</ele>
        <time>2019-04-01T06:38:37.928Z</time>
      </trkpt>
      <trkpt lat="45.20274" lon="0.22874">
        <ele>99.553535461426</ele>
        <time>2019-04-01T06:39:35.807Z</time>
      </trkpt>
      <trkpt lat="45.20111" lon="0.22636">
        <ele>95.451210021973</ele>
        <time>2019-04-01T06:40:33.723Z</time>
      </trkpt>
      <trkpt lat="45.20077" lon="0.22604">
        <ele>93.552131652832</ele>
        <time>2019-04-01T06:41:31.646Z</time>
      </trkpt>
      <trkpt lat="45.19999" lon="0.2258">
        <ele>91.840087890625</ele>
        <time>2019-04-01T06:42:29.581Z</time>
      </trkpt>
      <trkpt lat="45.19884" lon="0.22599">
        <ele>87.922912597656</ele>
        <time>2019-04-01T06:43:27.535Z</time>
      </trkpt>
      <trkpt lat="45.19859" lon="0.22613">
        <ele>86.674591064453</ele>
        <time>2019-04-01T06:44:25.493Z</time>
      </trkpt>
      <trkpt lat="45.19801" lon="0.22642">
        <ele>84.335632324219</ele>
        <time>2019-04-01T06:45:23.461Z</time>
      </trkpt>
      <trkpt lat="45.19763" lon="0.22651">
        <ele>82.466361999512</ele>
        <time>2019-04-01T06:46:21.435Z</time>
      </trkpt>
      <trkpt lat="45.19621" lon="0.22658">
        <ele>78.861228942871</ele>
        <time>2019-04-01T06:47:19.432Z</time>
      </trkpt>
      <trkpt lat="45.19553" lon="0.22653">
        <ele>74.473640441895</ele>
        <time>2019-04-01T06:48:17.440Z</time>
      </trkpt>
      <trkpt lat="45.19346" lon="0.22572">
        <ele>65.119758605957</ele>
        <time>2019-04-01T06:49:15.482Z</time>
      </trkpt>
      <trkpt lat="45.19216" lon="0.22512">
        <ele>60.559009552002</ele>
        <time>2019-04-01T06:50:13.546Z</time>
      </trkpt>
      <trkpt lat="45.19233" lon="0.22444">
        <ele>61.772789001465</ele>
        <time>2019-04-01T06:51:11.618Z</time>
      </trkpt>
      <trkpt lat="45.19282" lon="0.22349">
        <ele>61.248649597168</ele>
        <time>2019-04-01T06:52:09.704Z</time>
      </trkpt>
      <trkpt lat="45.19282" lon="0.22349">
        <ele>61.249153137207</ele>
        <time>2019-04-01T06:53:07.790Z</time>
      </trkpt>
      <trkpt lat="45.19323" lon="0.22278">
        <ele>63.329788208008</ele>
        <time>2019-04-01T06:54:05.886Z</time>
      </trkpt>
      <trkpt lat="45.19323" lon="0.22278">
        <ele>63.330188751221</ele>
        <time>2019-04-01T06:55:03.982Z</time>
      </trkpt>
      <trkpt lat="45.1938" lon="0.2217">
        <ele>64.602447509766</ele>
        <time>2019-04-01T06:56:02.093Z</time>
      </trkpt>
      <trkpt lat="45.19395" lon="0.22135">
        <ele>64.818626403809</ele>
        <time>2019-04-01T06:57:00.209Z</time>
      </trkpt>
      <trkpt lat="45.19409" lon="0.22076">
        <ele>63.826705932617</ele>
        <time>2019-04-01T06:57:58.332Z</time>
      </trkpt>
      <trkpt lat="45.19454" lon="0.21807">
        <ele>63.090675354004</ele>
        <time>2019-04-01T06:58:56.486Z</time>
      </trkpt>
      <trkpt lat="45.1947" lon="0.21757">
        <ele>62.917888641357</ele>
        <time>2019-04-01T06:59:54.646Z</time>
      </trkpt>
      <trkpt lat="45.1947" lon="0.21757">
        <ele>62.918292999268</ele>
        <time>2019-04-01T07:00:52.806Z</time>
      </trkpt>
      <trkpt lat="45.19496" lon="0.21688">
        <ele>62.119731903076</ele>
        <time>2019-04-01T07:01:50.975Z</time>
      </trkpt>
      <trkpt lat="45.19523" lon="0.21648">
        <ele>60.616397857666</ele>
        <time>2019-04-01T07:02:49.150Z</time>
      </trkpt>
      <trkpt lat="45.19584" lon="0.21589">
        <ele>55.262321472168</ele>
        <time>2019-04-01T07:03:47.337Z</time>
      </trkpt>
      <trkpt lat="45.19615" lon="0.21549">
        <ele>58.985084533691</ele>
        <time>2019-04-01T07:04:45.531Z</time>
      </trkpt>
      <trkpt lat="45.19745" lon="0.21203">
        <ele>54.335319519043</ele>
        <time>2019-04-01T07:05:43.769Z</time>
      </trkpt>
      <trkpt lat="45.20033" lon="0.20092">
        <ele>59.24499130249</ele>
        <time>2019-04-01T07:06:42.141Z</time>
      </trkpt>
      <trkpt lat="45.20043" lon="0.20031">
        <ele>56.476490020752</ele>
        <time>2019-04-01T07:07:40.520Z</time>
      </trkpt>
      <trkpt lat="45.20032" lon="0.19809">
        <ele>57.406227111816</ele>
        <time>2019-04-01T07:08:38.924Z</time>
      </trkpt>
      <trkpt lat="45.20048" lon="0.19719">
        <ele>59.040664672852</ele>
        <time>2019-04-01T07:09:37.339Z</time>
      </trkpt>
      <trkpt lat="45.20076" lon="0.19617">
        <ele>56.652988433838</ele>
        <time>2019-04-01T07:10:35.766Z</time>
      </trkpt>
      <trkpt lat="45.20091" lon="0.1958">
        <ele>55.622192382812</ele>
        <time>2019-04-01T07:11:34.198Z</time>
      </trkpt>
      <trkpt lat="45.20091" lon="0.1958">
        <ele>55.622493743896</ele>
        <time>2019-04-01T07:12:32.630Z</time>
      </trkpt>
      <trkpt lat="45.2017" lon="0.19395">
        <ele>49.486061096191</ele>
        <time>2019-04-01T07:13:31.087Z</time>
      </trkpt>
      <trkpt lat="45.20238" lon="0.1923">
        <ele>51.406150817871</ele>
        <time>2019-04-01T07:14:29.565Z</time>
      </trkpt>
      <trkpt lat="45.20243" lon="0.1922">
        <ele>51.644290924072</ele>
        <time>2019-04-01T07:15:28.045Z</time>
      </trkpt>
      <trkpt lat="45.20247" lon="0.19207">
        <ele>51.901741027832</ele>
        <time>2019-04-01T07:16:26.526Z</time>
      </trkpt>
      <trkpt lat="45.20261" lon="0.19135">
        <ele>53.111549377441</ele>
        <time>2019-04-01T07:17:25.016Z</time>
      </trkpt>
      <trkpt lat="45.20261" lon="0.19135">
        <ele>53.111751556396</ele>
        <time>2019-04-01T07:18:23.506Z</time>
      </trkpt>
      <trkpt lat="45.20265" lon="0.19089">
        <ele>53.119068145752</ele>
        <time>2019-04-01T07:19:22.001Z</time>
      </trkpt>
      <trkpt lat="45.20374" lon="0.18649">
        <ele>49.510715484619</ele>
        <time>2019-04-01T07:20:20.549Z</time>
      </trkpt>
      <trkpt lat="45.20443" lon="0.18227">
        <ele>48.503925323486</ele>
        <time>2019-04-01T07:21:19.146Z</time>
      </trkpt>
      <trkpt lat="45.20443" lon="0.18132">
        <ele>52.217845916748</ele>
        <time>2019-04-01T07:22:17.753Z</time>
      </trkpt>
      <trkpt lat="45.20443" lon="0.18132">
        <ele>52.218952178955</ele>
        <time>2019-04-01T07:23:16.360Z</time>
      </trkpt>
      <trkpt lat="45.20401" lon="0.17773">
        <ele>55.358627319336</ele>
        <time>2019-04-01T07:24:15.009Z</time>
      </trkpt>
      <trkpt lat="45.20387" lon="0.17625">
        <ele>53.752593994141</ele>
        <time>2019-04-01T07:25:13.674Z</time>
      </trkpt>
      <trkpt lat="45.20398" lon="0.17562">
        <ele>53.22038269043</ele>
        <time>2019-04-01T07:26:12.347Z</time>
      </trkpt>
      <trkpt lat="45.20424" lon="0.17518">
        <ele>53.626583099365</ele>
        <time>2019-04-01T07:27:11.026Z</time>
      </trkpt>
      <trkpt lat="45.20442" lon="0.17497">
        <ele>54.083114624023</ele>
        <time>2019-04-01T07:28:09.709Z</time>
      </trkpt>
      <trkpt lat="45.20737" lon="0.1727">
        <ele>47.025039672852</ele>
        <time>2019-04-01T07:29:08.446Z</time>
      </trkpt>
      <trkpt lat="45.20766" lon="0.17228">
        <ele>48.613773345947</ele>
        <time>2019-04-01T07:30:07.189Z</time>
      </trkpt>
      <trkpt lat="45.20864" lon="0.16975">
        <ele>46.637523651123</ele>
        <time>2019-04-01T07:31:05.965Z</time>
      </trkpt>
      <trkpt lat="45.20877" lon="0.16939">
        <ele>46.439491271973</ele>
        <time>2019-04-01T07:32:04.746Z</time>
      </trkpt>
      <trkpt lat="45.2088" lon="0.16895">
        <ele>47.649501800537</ele>
        <time>2019-04-01T07:33:03.532Z</time>
      </trkpt>
      <trkpt lat="45.2085" lon="0.16471">
        <ele>44.651309967041</ele>
        <time>2019-04-01T07:34:02.366Z</time>
      </trkpt>
      <trkpt lat="45.2085" lon="0.16471">
        <ele>44.651710510254</ele>
        <time>2019-04-01T07:35:01.200Z</time>
      </trkpt>
      <trkpt lat="45.20859" lon="0.16408">
        <ele>44.662212371826</ele>
        <time>2019-04-01T07:36:00.041Z</time>
      </trkpt>
      <trkpt lat="45.20871" lon="0.1638">
        <ele>44.765193939209</ele>
        <time>2019-04-01T07:36:58.886Z</time>
      </trkpt>
      <trkpt lat="45.2096" lon="0.16249">
        <ele>42.459671020508</ele>
        <time>2019-04-01T07:37:57.751Z</time>
      </trkpt>
      <trkpt lat="45.2095" lon="0.16222">
        <ele>42.124984741211</ele>
        <time>2019-04-01T07:38:56.620Z</time>
      </trkpt>
      <trkpt lat="45.20944" lon="0.16205">
        <ele>41.92546081543</ele>
        <time>2019-04-01T07:39:55.491Z</time>
      </trkpt>
      <trkpt lat="45.20739" lon="0.1565">
        <ele>55.972835540771</ele>
        <time>2019-04-01T07:40:54.433Z</time>
      </trkpt>
      <trkpt lat="45.20739" lon="0.1565">
        <ele>55.962963104248</ele>
        <time>2019-04-01T07:41:53.375Z</time>
      </trkpt>
      <trkpt lat="45.20694" lon="0.15528">
        <ele>60.610652923584</ele>
        <time>2019-04-01T07:42:52.332Z</time>
      </trkpt>
      <trkpt lat="45.20671" lon="0.15462">
        <ele>61.975131988525</ele>
        <time>2019-04-01T07:43:51.298Z</time>
      </trkpt>
      <trkpt lat="45.20628" lon="0.15319">
        <ele>60.569206237793</ele>
        <time>2019-04-01T07:44:50.281Z</time>
      </trkpt>
      <trkpt lat="45.206" lon="0.151">
        <ele>54.651874542236</ele>
        <time>2019-04-01T07:45:49.289Z</time>
      </trkpt>
      <trkpt lat="45.20566" lon="0.14891">
        <ele>49.503223419189</ele>
        <time>2019-04-01T07:46:48.322Z</time>
      </trkpt>
      <trkpt lat="45.20566" lon="0.14891">
        <ele>49.502418518066</ele>
        <time>2019-04-01T07:47:47.355Z</time>
      </trkpt>
      <trkpt lat="45.20486" lon="0.14412">
        <ele>49.490989685059</ele>
        <time>2019-04-01T07:48:46.443Z</time>
      </trkpt>
      <trkpt lat="45.20473" lon="0.14334">
        <ele>50.247585296631</ele>
        <time>2019-04-01T07:49:45.540Z</time>
      </trkpt>
      <trkpt lat="45.20421" lon="0.14013">
        <ele>59.60506439209</ele>
        <time>2019-04-01T07:50:44.675Z</time>
      </trkpt>
      <trkpt lat="45.20428" lon="0.13995">
        <ele>59.609939575195</ele>
        <time>2019-04-01T07:51:43.812Z</time>
      </trkpt>
      <trkpt lat="45.20435" lon="0.13987">
        <ele>59.301002502441</ele>
        <time>2019-04-01T07:52:42.950Z</time>
      </trkpt>
      <trkpt lat="45.20435" lon="0.13975">
        <ele>59.301002502441</ele>
        <time>2019-04-01T07:53:42.090Z</time>
      </trkpt>
      <trkpt lat="45.2042" lon="0.13965">
        <ele>59.996112823486</ele>
        <time>2019-04-01T07:54:41.232Z</time>
      </trkpt>
      <trkpt lat="45.20406" lon="0.13949">
        <ele>61.127178192139</ele>
        <time>2019-04-01T07:55:40.377Z</time>
      </trkpt>
      <trkpt lat="45.20335" lon="0.13701">
        <ele>67.133728027344</ele>
        <time>2019-04-01T07:56:39.552Z</time>
      </trkpt>
      <trkpt lat="45.20316" lon="0.13625">
        <ele>67.047912597656</ele>
        <time>2019-04-01T07:57:38.737Z</time>
      </trkpt>
      <trkpt lat="45.20316" lon="0.13625">
        <ele>67.049118041992</ele>
        <time>2019-04-01T07:58:37.922Z</time>
      </trkpt>
      <trkpt lat="45.20315" lon="0.13621">
        <ele>67.125144958496</ele>
        <time>2019-04-01T07:59:37.107Z</time>
      </trkpt>
      <trkpt lat="45.20298" lon="0.13557">
        <ele>69.519424438477</ele>
        <time>2019-04-01T08:00:36.300Z</time>
      </trkpt>
      <trkpt lat="45.20292" lon="0.13525">
        <ele>70.087242126465</ele>
        <time>2019-04-01T08:01:35.497Z</time>
      </trkpt>
      <trkpt lat="45.20276" lon="0.13447">
        <ele>70.617301940918</ele>
        <time>2019-04-01T08:02:34.703Z</time>
      </trkpt>
      <trkpt lat="45.20276" lon="0.13447">
        <ele>70.617500305176</ele>
        <time>2019-04-01T08:03:33.909Z</time>
      </trkpt>
      <trkpt lat="45.20253" lon="0.13421">
        <ele>71.479957580566</ele>
        <time>2019-04-01T08:04:33.120Z</time>
      </trkpt>
      <trkpt lat="45.20167" lon="0.13358">
        <ele>73.231605529785</ele>
        <time>2019-04-01T08:05:32.346Z</time>
      </trkpt>
      <trkpt lat="45.20065" lon="0.13281">
        <ele>77.798561096191</ele>
        <time>2019-04-01T08:06:31.591Z</time>
      </trkpt>
      <trkpt lat="45.20051" lon="0.13271">
        <ele>78.635269165039</ele>
        <time>2019-04-01T08:07:30.838Z</time>
      </trkpt>
      <trkpt lat="45.19884" lon="0.13144">
        <ele>87.037399291992</ele>
        <time>2019-04-01T08:08:30.115Z</time>
      </trkpt>
      <trkpt lat="45.1983" lon="0.13103">
        <ele>88.306869506836</ele>
        <time>2019-04-01T08:09:29.402Z</time>
      </trkpt>
      <trkpt lat="45.19816" lon="0.13092">
        <ele>88.499954223633</ele>
        <time>2019-04-01T08:10:28.692Z</time>
      </trkpt>
      <trkpt lat="45.1956" lon="0.129">
        <ele>91.259719848633</ele>
        <time>2019-04-01T08:11:28.028Z</time>
      </trkpt>
      <trkpt lat="45.19174" lon="0.12606">
        <ele>111.11180114746</ele>
        <time>2019-04-01T08:12:27.434Z</time>
      </trkpt>
      <trkpt lat="45.1909" lon="0.12544">
        <ele>117.54822540283</ele>
        <time>2019-04-01T08:13:26.856Z</time>
      </trkpt>
      <trkpt lat="45.18937" lon="0.12429">
        <ele>124.45398712158</ele>
        <time>2019-04-01T08:14:26.305Z</time>
      </trkpt>
      <trkpt lat="45.18845" lon="0.1236">
        <ele>128.7970123291</ele>
        <time>2019-04-01T08:15:25.771Z</time>
      </trkpt>
      <trkpt lat="45.18703" lon="0.12254">
        <ele>127.52263641357</ele>
        <time>2019-04-01T08:16:25.263Z</time>
      </trkpt>
      <trkpt lat="45.18645" lon="0.12209">
        <ele>126.96528625488</ele>
        <time>2019-04-01T08:17:24.765Z</time>
      </trkpt>
      <trkpt lat="45.18212" lon="0.11884">
        <ele>116.08807373047</ele>
        <time>2019-04-01T08:18:24.346Z</time>
      </trkpt>
      <trkpt lat="45.18212" lon="0.11884">
        <ele>116.08807373047</ele>
        <time>2019-04-01T08:19:23.927Z</time>
      </trkpt>
      <trkpt lat="45.17849" lon="0.11615">
        <ele>110.00555419922</ele>
        <time>2019-04-01T08:20:23.573Z</time>
      </trkpt>
      <trkpt lat="45.17817" lon="0.11588">
        <ele>108.60266113281</ele>
        <time>2019-04-01T08:21:23.225Z</time>
      </trkpt>
      <trkpt lat="45.17709" lon="0.11491">
        <ele>104.53871917725</ele>
        <time>2019-04-01T08:22:22.898Z</time>
      </trkpt>
      <trkpt lat="45.17655" lon="0.11398">
        <ele>104.15950012207</ele>
        <time>2019-04-01T08:23:22.584Z</time>
      </trkpt>
      <trkpt lat="45.17484" lon="0.1082">
        <ele>101.46169281006</ele>
        <time>2019-04-01T08:24:22.341Z</time>
      </trkpt>
      <trkpt lat="45.17375" lon="0.10452">
        <ele>108.11299133301</ele>
        <time>2019-04-01T08:25:22.143Z</time>
      </trkpt>
      <trkpt lat="45.17375" lon="0.10452">
        <ele>108.11329650879</ele>
        <time>2019-04-01T08:26:21.945Z</time>
      </trkpt>
      <trkpt lat="45.17349" lon="0.10361">
        <ele>109.53343200684</ele>
        <time>2019-04-01T08:27:21.758Z</time>
      </trkpt>
      <trkpt lat="45.17097" lon="0.09498">
        <ele>119.9387588501</ele>
        <time>2019-04-01T08:28:21.677Z</time>
      </trkpt>
      <trkpt lat="45.17086" lon="0.09461">
        <ele>120.01599121094</ele>
        <time>2019-04-01T08:29:21.601Z</time>
      </trkpt>
      <trkpt lat="45.17035" lon="0.09287">
        <ele>121.88192749023</ele>
        <time>2019-04-01T08:30:21.546Z</time>
      </trkpt>
      <trkpt lat="45.16929" lon="0.08822">
        <ele>112.29442596436</ele>
        <time>2019-04-01T08:31:21.546Z</time>
      </trkpt>
      <trkpt lat="45.16929" lon="0.08822">
        <ele>112.29402160645</ele>
        <time>2019-04-01T08:32:21.546Z</time>
      </trkpt>
      <trkpt lat="45.16844" lon="0.08467">
        <ele>99.874366760254</ele>
        <time>2019-04-01T08:33:21.589Z</time>
      </trkpt>
      <trkpt lat="45.16805" lon="0.08288">
        <ele>93.691383361816</ele>
        <time>2019-04-01T08:34:21.653Z</time>
      </trkpt>
      <trkpt lat="45.16752" lon="0.08059">
        <ele>93.720909118652</ele>
        <time>2019-04-01T08:35:21.744Z</time>
      </trkpt>
      <trkpt lat="45.16744" lon="0.0802">
        <ele>93.547134399414</ele>
        <time>2019-04-01T08:36:21.840Z</time>
      </trkpt>
      <trkpt lat="45.16728" lon="0.07943">
        <ele>92.368576049805</ele>
        <time>2019-04-01T08:37:21.945Z</time>
      </trkpt>
      <trkpt lat="45.16682" lon="0.07726">
        <ele>88.190139770508</ele>
        <time>2019-04-01T08:38:22.076Z</time>
      </trkpt>
      <trkpt lat="45.16586" lon="0.07305">
        <ele>84.768699645996</ele>
        <time>2019-04-01T08:39:22.257Z</time>
      </trkpt>
      <trkpt lat="45.16355" lon="0.06289">
        <ele>75.837623596191</ele>
        <time>2019-04-01T08:40:22.559Z</time>
      </trkpt>
      <trkpt lat="45.16132" lon="0.05302">
        <ele>81.88761138916</ele>
        <time>2019-04-01T08:41:22.978Z</time>
      </trkpt>
      <trkpt lat="45.16132" lon="0.05302">
        <ele>81.887413024902</ele>
        <time>2019-04-01T08:42:23.397Z</time>
      </trkpt>
      <trkpt lat="45.16061" lon="0.04982">
        <ele>77.945404052734</ele>
        <time>2019-04-01T08:43:23.854Z</time>
      </trkpt>
      <trkpt lat="45.1587" lon="0.04136">
        <ele>59.467109680176</ele>
        <time>2019-04-01T08:44:24.411Z</time>
      </trkpt>
      <trkpt lat="45.1587" lon="0.04136">
        <ele>59.467010498047</ele>
        <time>2019-04-01T08:45:24.968Z</time>
      </trkpt>
      <trkpt lat="45.15869" lon="0.0413">
        <ele>59.248176574707</ele>
        <time>2019-04-01T08:46:25.526Z</time>
      </trkpt>
      <trkpt lat="45.15666" lon="0.03242">
        <ele>67.930877685547</ele>
        <time>2019-04-01T08:47:26.190Z</time>
      </trkpt>
      <trkpt lat="45.15666" lon="0.03242">
        <ele>67.930778503418</ele>
        <time>2019-04-01T08:48:26.854Z</time>
      </trkpt>
      <trkpt lat="45.15632" lon="0.03081">
        <ele>69.055290222168</ele>
        <time>2019-04-01T08:49:27.537Z</time>
      </trkpt>
      <trkpt lat="45.15632" lon="0.0308">
        <ele>69.053703308105</ele>
        <time>2019-04-01T08:50:28.220Z</time>
      </trkpt>
      <trkpt lat="45.15632" lon="0.0308">
        <ele>69.053703308105</ele>
        <time>2019-04-01T08:51:28.903Z</time>
      </trkpt>
      <trkpt lat="45.15621" lon="0.03026">
        <ele>69.445281982422</ele>
        <time>2019-04-01T08:52:29.592Z</time>
      </trkpt>
      <trkpt lat="45.15621" lon="0.03026">
        <ele>69.444976806641</ele>
        <time>2019-04-01T08:53:30.281Z</time>
      </trkpt>
      <trkpt lat="45.15539" lon="0.0266">
        <ele>63.789016723633</ele>
        <time>2019-04-01T08:54:31.014Z</time>
      </trkpt>
      <trkpt lat="45.15399" lon="0.02108">
        <ele>61.839908599854</ele>
        <time>2019-04-01T08:55:31.813Z</time>
      </trkpt>
      <trkpt lat="45.15399" lon="0.02108">
        <ele>61.840007781982</ele>
        <time>2019-04-01T08:56:32.612Z</time>
      </trkpt>
      <trkpt lat="45.15381" lon="0.01985">
        <ele>60.045471191406</ele>
        <time>2019-04-01T08:57:33.425Z</time>
      </trkpt>
      <trkpt lat="45.15377" lon="0.01855">
        <ele>58.912830352783</ele>
        <time>2019-04-01T08:58:34.253Z</time>
      </trkpt>
      <trkpt lat="45.1538" lon="0.01739">
        <ele>56.666912078857</ele>
        <time>2019-04-01T08:59:35.094Z</time>
      </trkpt>
      <trkpt lat="45.15402" lon="0.01504">
        <ele>48.267162322998</ele>
        <time>2019-04-01T09:00:35.962Z</time>
      </trkpt>
      <trkpt lat="45.15402" lon="0.01504">
        <ele>48.267562866211</ele>
        <time>2019-04-01T09:01:36.830Z</time>
      </trkpt>
      <trkpt lat="45.15429" lon="0.0129">
        <ele>43.164417266846</ele>
        <time>2019-04-01T09:02:37.723Z</time>
      </trkpt>
      <trkpt lat="45.15429" lon="0.0129">
        <ele>43.164115905762</ele>
        <time>2019-04-01T09:03:38.616Z</time>
      </trkpt>
      <trkpt lat="45.15451" lon="0.01098">
        <ele>42.668846130371</ele>
        <time>2019-04-01T09:04:39.531Z</time>
      </trkpt>
      <trkpt lat="45.15451" lon="0.01098">
        <ele>42.668041229248</ele>
        <time>2019-04-01T09:05:40.446Z</time>
      </trkpt>
      <trkpt lat="45.15459" lon="0.01008">
        <ele>42.368316650391</ele>
        <time>2019-04-01T09:06:41.371Z</time>
      </trkpt>
      <trkpt lat="45.15442" lon="0.0095">
        <ele>45.914680480957</ele>
        <time>2019-04-01T09:07:42.303Z</time>
      </trkpt>
      <trkpt lat="45.15426" lon="0.0094">
        <ele>47.594535827637</ele>
        <time>2019-04-01T09:08:43.238Z</time>
      </trkpt>
      <trkpt lat="45.15381" lon="0.00882">
        <ele>53.463672637939</ele>
        <time>2019-04-01T09:09:44.183Z</time>
      </trkpt>
      <trkpt lat="45.15355" lon="0.00851">
        <ele>56.210708618164</ele>
        <time>2019-04-01T09:10:45.133Z</time>
      </trkpt>
      <trkpt lat="45.15292" lon="0.00807">
        <ele>61.878807067871</ele>
        <time>2019-04-01T09:11:46.094Z</time>
      </trkpt>
      <trkpt lat="45.15282" lon="0.00808">
        <ele>62.097438812256</ele>
        <time>2019-04-01T09:12:47.057Z</time>
      </trkpt>
      <trkpt lat="45.15263" lon="0.0081">
        <ele>62.528663635254</ele>
        <time>2019-04-01T09:13:48.023Z</time>
      </trkpt>
      <trkpt lat="45.15255" lon="0.00811">
        <ele>62.721752166748</ele>
        <time>2019-04-01T09:14:48.990Z</time>
      </trkpt>
      <trkpt lat="45.15239" lon="0.00811">
        <ele>63.088817596436</ele>
        <time>2019-04-01T09:15:49.960Z</time>
      </trkpt>
      <trkpt lat="45.15226" lon="0.00844">
        <ele>64.321075439453</ele>
        <time>2019-04-01T09:16:50.934Z</time>
      </trkpt>
      <trkpt lat="45.15226" lon="0.00844">
        <ele>64.320579528809</ele>
        <time>2019-04-01T09:17:51.908Z</time>
      </trkpt>
      <trkpt lat="45.15197" lon="0.00921">
        <ele>65.617622375488</ele>
        <time>2019-04-01T09:18:52.892Z</time>
      </trkpt>
      <trkpt lat="45.1518" lon="0.00967">
        <ele>65.908149719238</ele>
        <time>2019-04-01T09:19:53.882Z</time>
      </trkpt>
      <trkpt lat="45.15157" lon="0.01026">
        <ele>65.766716003418</ele>
        <time>2019-04-01T09:20:54.879Z</time>
      </trkpt>
      <trkpt lat="45.15153" lon="0.01036">
        <ele>65.857223510742</ele>
        <time>2019-04-01T09:21:55.878Z</time>
      </trkpt>
      <trkpt lat="45.1514" lon="0.01058">
        <ele>66.062049865723</ele>
        <time>2019-04-01T09:22:56.880Z</time>
      </trkpt>
      <trkpt lat="45.15113" lon="0.011">
        <ele>66.836669921875</ele>
        <time>2019-04-01T09:23:57.888Z</time>
      </trkpt>
      <trkpt lat="45.15025" lon="0.01266">
        <ele>68.020629882812</ele>
        <time>2019-04-01T09:24:58.920Z</time>
      </trkpt>
      <trkpt lat="45.14977" lon="0.01325">
        <ele>71.04874420166</ele>
        <time>2019-04-01T09:25:59.962Z</time>
      </trkpt>
      <trkpt lat="45.14954" lon="0.01353">
        <ele>73.12085723877</ele>
        <time>2019-04-01T09:27:01.009Z</time>
      </trkpt>
      <trkpt lat="45.14954" lon="0.01353">
        <ele>73.12035369873</ele>
        <time>2019-04-01T09:28:02.056Z</time>
      </trkpt>
      <trkpt lat="45.14897" lon="0.01425">
        <ele>76.130729675293</ele>
        <time>2019-04-01T09:29:03.115Z</time>
      </trkpt>
      <trkpt lat="45.14835" lon="0.01489">
        <ele>79.065216064453</ele>
        <time>2019-04-01T09:30:04.186Z</time>
      </trkpt>
      <trkpt lat="45.14765" lon="0.0156">
        <ele>85.131210327148</ele>
        <time>2019-04-01T09:31:05.271Z</time>
      </trkpt>
      <trkpt lat="45.14756" lon="0.01572">
        <ele>85.221824645996</ele>
        <time>2019-04-01T09:32:06.358Z</time>
      </trkpt>
      <trkpt lat="45.14591" lon="0.01903">
        <ele>97.079681396484</ele>
        <time>2019-04-01T09:33:07.491Z</time>
      </trkpt>
      <trkpt lat="45.14559" lon="0.01947">
        <ele>98.366180419922</ele>
        <time>2019-04-01T09:34:08.631Z</time>
      </trkpt>
      <trkpt lat="45.14528" lon="0.01971">
        <ele>98.70726776123</ele>
        <time>2019-04-01T09:35:09.777Z</time>
      </trkpt>
      <trkpt lat="45.14454" lon="0.01998">
        <ele>100.79147338867</ele>
        <time>2019-04-01T09:36:10.935Z</time>
      </trkpt>
      <trkpt lat="45.14422" lon="0.02022">
        <ele>100.81581878662</ele>
        <time>2019-04-01T09:37:12.099Z</time>
      </trkpt>
      <trkpt lat="45.14377" lon="0.02087">
        <ele>103.54937744141</ele>
        <time>2019-04-01T09:38:13.273Z</time>
      </trkpt>
      <trkpt lat="45.1435" lon="0.02155">
        <ele>103.97710418701</ele>
        <time>2019-04-01T09:39:14.456Z</time>
      </trkpt>
      <trkpt lat="45.14365" lon="0.02496">
        <ele>98.645286560059</ele>
        <time>2019-04-01T09:40:15.678Z</time>
      </trkpt>
      <trkpt lat="45.14363" lon="0.02546">
        <ele>98.286155700684</ele>
        <time>2019-04-01T09:41:16.905Z</time>
      </trkpt>
      <trkpt lat="45.14338" lon="0.02663">
        <ele>100.53802490234</ele>
        <time>2019-04-01T09:42:18.146Z</time>
      </trkpt>
      <trkpt lat="45.14338" lon="0.02663">
        <ele>100.53842163086</ele>
        <time>2019-04-01T09:43:19.387Z</time>
      </trkpt>
      <trkpt lat="45.14292" lon="0.02812">
        <ele>102.41125488281</ele>
        <time>2019-04-01T09:44:20.647Z</time>
      </trkpt>
      <trkpt lat="45.14165" lon="0.03361">
        <ele>99.636375427246</ele>
        <time>2019-04-01T09:45:21.972Z</time>
      </trkpt>
      <trkpt lat="45.14145" lon="0.03416">
        <ele>100.13439178467</ele>
        <time>2019-04-01T09:46:23.304Z</time>
      </trkpt>
      <trkpt lat="45.14021" lon="0.03633">
        <ele>106.36923980713</ele>
        <time>2019-04-01T09:47:24.668Z</time>
      </trkpt>
      <trkpt lat="45.13977" lon="0.03715">
        <ele>109.58739471436</ele>
        <time>2019-04-01T09:48:26.043Z</time>
      </trkpt>
      <trkpt lat="45.13931" lon="0.03841">
        <ele>107.95079040527</ele>
        <time>2019-04-01T09:49:27.434Z</time>
      </trkpt>
      <trkpt lat="45.13914" lon="0.03906">
        <ele>108.14432525635</ele>
        <time>2019-04-01T09:50:28.833Z</time>
      </trkpt>
      <trkpt lat="45.13898" lon="0.04018">
        <ele>107.12838745117</ele>
        <time>2019-04-01T09:51:30.245Z</time>
      </trkpt>
      <trkpt lat="45.13907" lon="0.04118">
        <ele>104.76930236816</ele>
        <time>2019-04-01T09:52:31.669Z</time>
      </trkpt>
      <trkpt lat="45.13971" lon="0.04332">
        <ele>106.47240447998</ele>
        <time>2019-04-01T09:53:33.119Z</time>
      </trkpt>
      <trkpt lat="45.14006" lon="0.04483">
        <ele>103.13772583008</ele>
        <time>2019-04-01T09:54:34.587Z</time>
      </trkpt>
      <trkpt lat="45.14017" lon="0.04562">
        <ele>100.76644897461</ele>
        <time>2019-04-01T09:55:36.064Z</time>
      </trkpt>
      <trkpt lat="45.14007" lon="0.04654">
        <ele>100.33414459229</ele>
        <time>2019-04-01T09:56:37.552Z</time>
      </trkpt>
      <trkpt lat="45.13958" lon="0.04706">
        <ele>98.707427978516</ele>
        <time>2019-04-01T09:57:39.049Z</time>
      </trkpt>
      <trkpt lat="45.13942" lon="0.04728">
        <ele>96.477569580078</ele>
        <time>2019-04-01T09:58:40.550Z</time>
      </trkpt>
      <trkpt lat="45.13891" lon="0.04877">
        <ele>91.147789001465</ele>
        <time>2019-04-01T09:59:42.070Z</time>
      </trkpt>
      <trkpt lat="45.13878" lon="0.04906">
        <ele>90.066955566406</ele>
        <time>2019-04-01T10:00:43.594Z</time>
      </trkpt>
      <trkpt lat="45.13864" lon="0.0492">
        <ele>88.861671447754</ele>
        <time>2019-04-01T10:01:45.120Z</time>
      </trkpt>
      <trkpt lat="45.13831" lon="0.04929">
        <ele>86.463539123535</ele>
        <time>2019-04-01T10:02:46.652Z</time>
      </trkpt>
      <trkpt lat="45.13738" lon="0.04918">
        <ele>82.325218200684</ele>
        <time>2019-04-01T10:03:48.199Z</time>
      </trkpt>
      <trkpt lat="45.13692" lon="0.04921">
        <ele>79.666725158691</ele>
        <time>2019-04-01T10:04:49.753Z</time>
      </trkpt>
      <trkpt lat="45.13692" lon="0.04921">
        <ele>79.667335510254</ele>
        <time>2019-04-01T10:05:51.307Z</time>
      </trkpt>
      <trkpt lat="45.13535" lon="0.0493">
        <ele>74.271125793457</ele>
        <time>2019-04-01T10:06:52.886Z</time>
      </trkpt>
      <trkpt lat="45.13477" lon="0.04948">
        <ele>73.041809082031</ele>
        <time>2019-04-01T10:07:54.475Z</time>
      </trkpt>
      <trkpt lat="45.13422" lon="0.04985">
        <ele>71.569290161133</ele>
        <time>2019-04-01T10:08:56.073Z</time>
      </trkpt>
      <trkpt lat="45.13183" lon="0.05216">
        <ele>60.25386428833</ele>
        <time>2019-04-01T10:09:57.718Z</time>
      </trkpt>
      <trkpt lat="45.13103" lon="0.05263">
        <ele>59.713020324707</ele>
        <time>2019-04-01T10:10:59.377Z</time>
      </trkpt>
      <trkpt lat="45.12631" lon="0.05429">
        <ele>79.56372833252</ele>
        <time>2019-04-01T10:12:01.113Z</time>
      </trkpt>
      <trkpt lat="45.12631" lon="0.05429">
        <ele>79.56372833252</ele>
        <time>2019-04-01T10:13:02.849Z</time>
      </trkpt>
      <trkpt lat="45.12579" lon="0.05467">
        <ele>80.716323852539</ele>
        <time>2019-04-01T10:14:04.595Z</time>
      </trkpt>
      <trkpt lat="45.12533" lon="0.05532">
        <ele>80.745574951172</ele>
        <time>2019-04-01T10:15:06.351Z</time>
      </trkpt>
      <trkpt lat="45.12529" lon="0.0554">
        <ele>80.773429870605</ele>
        <time>2019-04-01T10:16:08.108Z</time>
      </trkpt>
      <trkpt lat="45.12432" lon="0.05684">
        <ele>74.114692687988</ele>
        <time>2019-04-01T10:17:09.888Z</time>
      </trkpt>
      <trkpt lat="45.12431" lon="0.05685">
        <ele>74.135673522949</ele>
        <time>2019-04-01T10:18:11.668Z</time>
      </trkpt>
      <trkpt lat="45.12431" lon="0.05685">
        <ele>74.135475158691</ele>
        <time>2019-04-01T10:19:13.448Z</time>
      </trkpt>
      <trkpt lat="45.12351" lon="0.05805">
        <ele>73.459999084473</ele>
        <time>2019-04-01T10:20:15.247Z</time>
      </trkpt>
      <trkpt lat="45.12332" lon="0.05856">
        <ele>71.579780578613</ele>
        <time>2019-04-01T10:21:17.052Z</time>
      </trkpt>
      <trkpt lat="45.12332" lon="0.05856">
        <ele>71.580184936523</ele>
        <time>2019-04-01T10:22:18.857Z</time>
      </trkpt>
      <trkpt lat="45.12291" lon="0.06185">
        <ele>62.134567260742</ele>
        <time>2019-04-01T10:23:20.700Z</time>
      </trkpt>
      <trkpt lat="45.12257" lon="0.06264">
        <ele>61.797470092773</ele>
        <time>2019-04-01T10:24:22.554Z</time>
      </trkpt>
      <trkpt lat="45.12202" lon="0.06325">
        <ele>60.370643615723</ele>
        <time>2019-04-01T10:25:24.419Z</time>
      </trkpt>
      <trkpt lat="45.12011" lon="0.06507">
        <ele>55.87024307251</ele>
        <time>2019-04-01T10:26:26.321Z</time>
      </trkpt>
      <trkpt lat="45.11993" lon="0.06591">
        <ele>53.624897003174</ele>
        <time>2019-04-01T10:27:28.233Z</time>
      </trkpt>
      <trkpt lat="45.12002" lon="0.07064">
        <ele>44.23987197876</ele>
        <time>2019-04-01T10:28:30.198Z</time>
      </trkpt>
      <trkpt lat="45.12001" lon="0.0721">
        <ele>42.485244750977</ele>
        <time>2019-04-01T10:29:32.180Z</time>
      </trkpt>
      <trkpt lat="45.11996" lon="0.07228">
        <ele>41.983219146729</ele>
        <time>2019-04-01T10:30:34.164Z</time>
      </trkpt>
      <trkpt lat="45.11983" lon="0.07273">
        <ele>41.23775100708</ele>
        <time>2019-04-01T10:31:36.153Z</time>
      </trkpt>
      <trkpt lat="45.11926" lon="0.07381">
        <ele>43.554988861084</ele>
        <time>2019-04-01T10:32:38.158Z</time>
      </trkpt>
      <trkpt lat="45.11926" lon="0.07381">
        <ele>43.554588317871</ele>
        <time>2019-04-01T10:33:40.163Z</time>
      </trkpt>
      <trkpt lat="45.11768" lon="0.076">
        <ele>44.936016082764</ele>
        <time>2019-04-01T10:34:42.203Z</time>
      </trkpt>
      <trkpt lat="45.11744" lon="0.0762">
        <ele>44.220527648926</ele>
        <time>2019-04-01T10:35:44.248Z</time>
      </trkpt>
      <trkpt lat="45.11499" lon="0.07429">
        <ele>56.619033813477</ele>
        <time>2019-04-01T10:36:46.337Z</time>
      </trkpt>
      <trkpt lat="45.1126" lon="0.07348">
        <ele>66.866264343262</ele>
        <time>2019-04-01T10:37:48.466Z</time>
      </trkpt>
      <trkpt lat="45.11261" lon="0.07348">
        <ele>66.865966796875</ele>
        <time>2019-04-01T10:38:50.595Z</time>
      </trkpt>
      <trkpt lat="45.10971" lon="0.07257">
        <ele>76.785316467285</ele>
        <time>2019-04-01T10:39:52.771Z</time>
      </trkpt>
      <trkpt lat="45.10932" lon="0.0726">
        <ele>77.539009094238</ele>
        <time>2019-04-01T10:40:54.953Z</time>
      </trkpt>
      <trkpt lat="45.10585" lon="0.07406">
        <ele>83.944000244141</ele>
        <time>2019-04-01T10:41:57.193Z</time>
      </trkpt>
      <trkpt lat="45.10465" lon="0.07443">
        <ele>78.217651367188</ele>
        <time>2019-04-01T10:42:59.453Z</time>
      </trkpt>
      <trkpt lat="45.10261" lon="0.07444">
        <ele>81.178482055664</ele>
        <time>2019-04-01T10:44:01.746Z</time>
      </trkpt>
      <trkpt lat="45.10234" lon="0.07434">
        <ele>81.10124206543</ele>
        <time>2019-04-01T10:45:04.043Z</time>
      </trkpt>
      <trkpt lat="45.10189" lon="0.07394">
        <ele>83.173034667969</ele>
        <time>2019-04-01T10:46:06.349Z</time>
      </trkpt>
      <trkpt lat="45.10189" lon="0.07394">
        <ele>83.172927856445</ele>
        <time>2019-04-01T10:47:08.655Z</time>
      </trkpt>
      <trkpt lat="45.1016" lon="0.0738">
        <ele>84.383041381836</ele>
        <time>2019-04-01T10:48:10.965Z</time>
      </trkpt>
      <trkpt lat="45.09996" lon="0.07348">
        <ele>83.082618713379</ele>
        <time>2019-04-01T10:49:13.302Z</time>
      </trkpt>
      <trkpt lat="45.09908" lon="0.07293">
        <ele>83.247131347656</ele>
        <time>2019-04-01T10:50:15.654Z</time>
      </trkpt>
      <trkpt lat="45.09871" lon="0.07296">
        <ele>83.965202331543</ele>
        <time>2019-04-01T10:51:18.012Z</time>
      </trkpt>
      <trkpt lat="45.09864" lon="0.07307">
        <ele>84.016593933105</ele>
        <time>2019-04-01T10:52:20.372Z</time>
      </trkpt>
      <trkpt lat="45.09864" lon="0.07307">
        <ele>84.016693115234</ele>
        <time>2019-04-01T10:53:22.732Z</time>
      </trkpt>
      <trkpt lat="45.09844" lon="0.07341">
        <ele>84.17749786377</ele>
        <time>2019-04-01T10:54:25.097Z</time>
      </trkpt>
      <trkpt lat="45.09773" lon="0.07396">
        <ele>84.564094543457</ele>
        <time>2019-04-01T10:55:27.475Z</time>
      </trkpt>
      <trkpt lat="45.0969" lon="0.07456">
        <ele>79.925094604492</ele>
        <time>2019-04-01T10:56:29.868Z</time>
      </trkpt>
      <trkpt lat="45.09659" lon="0.07465">
        <ele>78.62085723877</ele>
        <time>2019-04-01T10:57:32.266Z</time>
      </trkpt>
      <trkpt lat="45.09538" lon="0.07447">
        <ele>74.285293579102</ele>
        <time>2019-04-01T10:58:34.683Z</time>
      </trkpt>
      <trkpt lat="45.09357" lon="0.07435">
        <ele>66.437149047852</ele>
        <time>2019-04-01T10:59:37.129Z</time>
      </trkpt>
      <trkpt lat="45.09318" lon="0.07442">
        <ele>65.949668884277</ele>
        <time>2019-04-01T11:00:39.582Z</time>
      </trkpt>
      <trkpt lat="45.09283" lon="0.07476">
        <ele>66.511863708496</ele>
        <time>2019-04-01T11:01:42.041Z</time>
      </trkpt>
      <trkpt lat="45.09233" lon="0.07565">
        <ele>69.51082611084</ele>
        <time>2019-04-01T11:02:44.513Z</time>
      </trkpt>
      <trkpt lat="45.09206" lon="0.07598">
        <ele>71.136337280273</ele>
        <time>2019-04-01T11:03:46.991Z</time>
      </trkpt>
      <trkpt lat="45.0916" lon="0.07596">
        <ele>72.840682983398</ele>
        <time>2019-04-01T11:04:49.476Z</time>
      </trkpt>
      <trkpt lat="45.09099" lon="0.07582">
        <ele>74.457130432129</ele>
        <time>2019-04-01T11:05:51.971Z</time>
      </trkpt>
      <trkpt lat="45.09043" lon="0.07547">
        <ele>75.953842163086</ele>
        <time>2019-04-01T11:06:54.476Z</time>
      </trkpt>
      <trkpt lat="45.09043" lon="0.07547">
        <ele>75.953742980957</ele>
        <time>2019-04-01T11:07:56.981Z</time>
      </trkpt>
      <trkpt lat="45.0885" lon="0.07307">
        <ele>75.777984619141</ele>
        <time>2019-04-01T11:08:59.527Z</time>
      </trkpt>
      <trkpt lat="45.08783" lon="0.0724">
        <ele>79.506317138672</ele>
        <time>2019-04-01T11:10:02.086Z</time>
      </trkpt>
      <trkpt lat="45.08628" lon="0.07163">
        <ele>84.403251647949</ele>
        <time>2019-04-01T11:11:04.672Z</time>
      </trkpt>
      <trkpt lat="45.08604" lon="0.07167">
        <ele>84.218032836914</ele>
        <time>2019-04-01T11:12:07.262Z</time>
      </trkpt>
      <trkpt lat="45.08553" lon="0.07192">
        <ele>85.258857727051</ele>
        <time>2019-04-01T11:13:09.860Z</time>
      </trkpt>
      <trkpt lat="45.08553" lon="0.07192">
        <ele>85.258758544922</ele>
        <time>2019-04-01T11:14:12.458Z</time>
      </trkpt>
      <trkpt lat="45.08495" lon="0.07184">
        <ele>85.970504760742</ele>
        <time>2019-04-01T11:15:15.066Z</time>
      </trkpt>
      <trkpt lat="45.08465" lon="0.07195">
        <ele>86.601257324219</ele>
        <time>2019-04-01T11:16:17.679Z</time>
      </trkpt>
      <trkpt lat="45.0831" lon="0.07333">
        <ele>84.936676025391</ele>
        <time>2019-04-01T11:17:20.321Z</time>
      </trkpt>
      <trkpt lat="45.0799" lon="0.07407">
        <ele>96.299919128418</ele>
        <time>2019-04-01T11:18:23.015Z</time>
      </trkpt>
      <trkpt lat="45.07956" lon="0.074">
        <ele>97.786437988281</ele>
        <time>2019-04-01T11:19:25.714Z</time>
      </trkpt>
      <trkpt lat="45.07898" lon="0.0734">
        <ele>99.833160400391</ele>
        <time>2019-04-01T11:20:28.425Z</time>
      </trkpt>
      <trkpt lat="45.07857" lon="0.07313">
        <ele>101.62242889404</ele>
        <time>2019-04-01T11:21:31.143Z</time>
      </trkpt>
      <trkpt lat="45.07812" lon="0.07299">
        <ele>104.00383758545</ele>
        <time>2019-04-01T11:22:33.868Z</time>
      </trkpt>
      <trkpt lat="45.07766" lon="0.07305">
        <ele>105</ele>
        <time>2019-04-01T11:23:36.601Z</time>
      </trkpt>
      <trkpt lat="45.07766" lon="0.07305">
        <ele>105</ele>
        <time>2019-04-01T11:24:39.334Z</time>
      </trkpt>
      <trkpt lat="45.07652" lon="0.07329">
        <ele>104.5619430542</ele>
        <time>2019-04-01T11:25:42.085Z</time>
      </trkpt>
      <trkpt lat="45.07606" lon="0.0735">
        <ele>104.31093597412</ele>
        <time>2019-04-01T11:26:44.844Z</time>
      </trkpt>
      <trkpt lat="45.07574" lon="0.07375">
        <ele>104.62740325928</ele>
        <time>2019-04-01T11:27:47.609Z</time>
      </trkpt>
      <trkpt lat="45.0755" lon="0.07378">
        <ele>104.86943054199</ele>
        <time>2019-04-01T11:28:50.378Z</time>
      </trkpt>
      <trkpt lat="45.07488" lon="0.07322">
        <ele>103.66114807129</ele>
        <time>2019-04-01T11:29:53.158Z</time>
      </trkpt>
      <trkpt lat="45.07417" lon="0.07302">
        <ele>101.8703918457</ele>
        <time>2019-04-01T11:30:55.950Z</time>
      </trkpt>
      <trkpt lat="45.0735" lon="0.07291">
        <ele>100.12282562256</ele>
        <time>2019-04-01T11:31:58.753Z</time>
      </trkpt>
      <trkpt lat="45.07302" lon="0.07315">
        <ele>97.354866027832</ele>
        <time>2019-04-01T11:33:01.564Z</time>
      </trkpt>
      <trkpt lat="45.07155" lon="0.07503">
        <ele>93.219329833984</ele>
        <time>2019-04-01T11:34:04.407Z</time>
      </trkpt>
      <trkpt lat="45.07024" lon="0.07577">
        <ele>91.939399719238</ele>
        <time>2019-04-01T11:35:07.272Z</time>
      </trkpt>
      <trkpt lat="45.06909" lon="0.07566">
        <ele>92.933853149414</ele>
        <time>2019-04-01T11:36:10.156Z</time>
      </trkpt>
      <trkpt lat="45.06738" lon="0.07583">
        <ele>90.428619384766</ele>
        <time>2019-04-01T11:37:13.067Z</time>
      </trkpt>
      <trkpt lat="45.06738" lon="0.07583">
        <ele>90.428421020508</ele>
        <time>2019-04-01T11:38:15.978Z</time>
      </trkpt>
      <trkpt lat="45.0653" lon="0.07604">
        <ele>91.066131591797</ele>
        <time>2019-04-01T11:39:18.922Z</time>
      </trkpt>
      <trkpt lat="45.06495" lon="0.07618">
        <ele>93.051803588867</ele>
        <time>2019-04-01T11:40:21.872Z</time>
      </trkpt>
      <trkpt lat="45.06471" lon="0.07635">
        <ele>94.433898925781</ele>
        <time>2019-04-01T11:41:24.827Z</time>
      </trkpt>
      <trkpt lat="45.06301" lon="0.07851">
        <ele>90.50269317627</ele>
        <time>2019-04-01T11:42:27.818Z</time>
      </trkpt>
      <trkpt lat="45.06262" lon="0.07883">
        <ele>88.388954162598</ele>
        <time>2019-04-01T11:43:30.816Z</time>
      </trkpt>
      <trkpt lat="45.06214" lon="0.07905">
        <ele>87.311744689941</ele>
        <time>2019-04-01T11:44:33.823Z</time>
      </trkpt>
      <trkpt lat="45.06173" lon="0.0792">
        <ele>86.951316833496</ele>
        <time>2019-04-01T11:45:36.836Z</time>
      </trkpt>
      <trkpt lat="45.06144" lon="0.07943">
        <ele>86.978851318359</ele>
        <time>2019-04-01T11:46:39.854Z</time>
      </trkpt>
      <trkpt lat="45.06121" lon="0.07975">
        <ele>86.400772094727</ele>
        <time>2019-04-01T11:47:42.878Z</time>
      </trkpt>
      <trkpt lat="45.06079" lon="0.08006">
        <ele>85.004600524902</ele>
        <time>2019-04-01T11:48:45.909Z</time>
      </trkpt>
      <trkpt lat="45.06079" lon="0.08006">
        <ele>85.004493713379</ele>
        <time>2019-04-01T11:49:48.940Z</time>
      </trkpt>
      <trkpt lat="45.06006" lon="0.08052">
        <ele>84.559501647949</ele>
        <time>2019-04-01T11:50:51.984Z</time>
      </trkpt>
      <trkpt lat="45.05897" lon="0.08096">
        <ele>82.482643127441</ele>
        <time>2019-04-01T11:51:55.046Z</time>
      </trkpt>
      <trkpt lat="45.05897" lon="0.08096">
        <ele>82.482536315918</ele>
        <time>2019-04-01T11:52:58.108Z</time>
      </trkpt>
      <trkpt lat="45.05824" lon="0.0812">
        <ele>82.553871154785</ele>
        <time>2019-04-01T11:54:01.182Z</time>
      </trkpt>
      <trkpt lat="45.05753" lon="0.08159">
        <ele>84.970848083496</ele>
        <time>2019-04-01T11:55:04.268Z</time>
      </trkpt>
      <trkpt lat="45.05715" lon="0.08165">
        <ele>87.211158752441</ele>
        <time>2019-04-01T11:56:07.361Z</time>
      </trkpt>
      <trkpt lat="45.05591" lon="0.08133">
        <ele>85.654350280762</ele>
        <time>2019-04-01T11:57:10.474Z</time>
      </trkpt>
      <trkpt lat="45.05564" lon="0.08122">
        <ele>84.718940734863</ele>
        <time>2019-04-01T11:58:13.591Z</time>
      </trkpt>
      <trkpt lat="45.05462" lon="0.08027">
        <ele>83.58358001709</ele>
        <time>2019-04-01T11:59:16.728Z</time>
      </trkpt>
      <trkpt lat="45.05419" lon="0.08">
        <ele>83.454849243164</ele>
        <time>2019-04-01T12:00:19.872Z</time>
      </trkpt>
      <trkpt lat="45.05301" lon="0.07966">
        <ele>83.077857971191</ele>
        <time>2019-04-01T12:01:23.036Z</time>
      </trkpt>
      <trkpt lat="45.05301" lon="0.07966">
        <ele>83.077857971191</ele>
        <time>2019-04-01T12:02:26.200Z</time>
      </trkpt>
      <trkpt lat="45.05257" lon="0.07957">
        <ele>83.387481689453</ele>
        <time>2019-04-01T12:03:29.371Z</time>
      </trkpt>
      <trkpt lat="45.05241" lon="0.07958">
        <ele>83.597229003906</ele>
        <time>2019-04-01T12:04:32.544Z</time>
      </trkpt>
      <trkpt lat="45.0524" lon="0.07958">
        <ele>83.608024597168</ele>
        <time>2019-04-01T12:05:35.717Z</time>
      </trkpt>
      <trkpt lat="45.0524" lon="0.07958">
        <ele>83.608123779297</ele>
        <time>2019-04-01T12:06:38.890Z</time>
      </trkpt>
      <trkpt lat="45.04987" lon="0.07982">
        <ele>83.127342224121</ele>
        <time>2019-04-01T12:07:42.104Z</time>
      </trkpt>
      <trkpt lat="45.04868" lon="0.07989">
        <ele>82.382507324219</ele>
        <time>2019-04-01T12:08:45.337Z</time>
      </trkpt>
      <trkpt lat="45.04868" lon="0.07989">
        <ele>82.38240814209</ele>
        <time>2019-04-01T12:09:48.570Z</time>
      </trkpt>
      <trkpt lat="45.04853" lon="0.07979">
        <ele>82.813636779785</ele>
        <time>2019-04-01T12:10:51.806Z</time>
      </trkpt>
      <trkpt lat="45.04786" lon="0.07888">
        <ele>83.061683654785</ele>
        <time>2019-04-01T12:11:55.057Z</time>
      </trkpt>
      <trkpt lat="45.04786" lon="0.07888">
        <ele>83.061782836914</ele>
        <time>2019-04-01T12:12:58.308Z</time>
      </trkpt>
      <trkpt lat="45.04679" lon="0.07749">
        <ele>78.942367553711</ele>
        <time>2019-04-01T12:14:01.582Z</time>
      </trkpt>
      <trkpt lat="45.04609" lon="0.07673">
        <ele>76.713600158691</ele>
        <time>2019-04-01T12:15:04.870Z</time>
      </trkpt>
      <trkpt lat="45.04199" lon="0.07335">
        <ele>71.995162963867</ele>
        <time>2019-04-01T12:16:08.234Z</time>
      </trkpt>
      <trkpt lat="45.04163" lon="0.07317">
        <ele>72.432830810547</ele>
        <time>2019-04-01T12:17:11.604Z</time>
      </trkpt>
      <trkpt lat="45.04097" lon="0.07313">
        <ele>72.067390441895</ele>
        <time>2019-04-01T12:18:14.985Z</time>
      </trkpt>
      <trkpt lat="45.03787" lon="0.07321">
        <ele>66.432403564453</ele>
        <time>2019-04-01T12:19:18.415Z</time>
      </trkpt>
      <trkpt lat="45.03762" lon="0.07325">
        <ele>65.454093933105</ele>
        <time>2019-04-01T12:20:21.849Z</time>
      </trkpt>
      <trkpt lat="45.03654" lon="0.07381">
        <ele>57.227947235107</ele>
        <time>2019-04-01T12:21:25.302Z</time>
      </trkpt>
      <trkpt lat="45.03558" lon="0.07387">
        <ele>45.465423583984</ele>
        <time>2019-04-01T12:22:28.770Z</time>
      </trkpt>
      <trkpt lat="45.03508" lon="0.07378">
        <ele>42.75350189209</ele>
        <time>2019-04-01T12:23:32.246Z</time>
      </trkpt>
      <trkpt lat="45.03458" lon="0.07351">
        <ele>40.70193862915</ele>
        <time>2019-04-01T12:24:35.731Z</time>
      </trkpt>
      <trkpt lat="45.03458" lon="0.07351">
        <ele>40.70193862915</ele>
        <time>2019-04-01T12:25:39.216Z</time>
      </trkpt>
      <trkpt lat="45.03344" lon="0.07287">
        <ele>39.469245910645</ele>
        <time>2019-04-01T12:26:42.720Z</time>
      </trkpt>
      <trkpt lat="45.03264" lon="0.07226">
        <ele>37.404598236084</ele>
        <time>2019-04-01T12:27:46.239Z</time>
      </trkpt>
      <trkpt lat="45.03143" lon="0.07202">
        <ele>36.202911376953</ele>
        <time>2019-04-01T12:28:49.778Z</time>
      </trkpt>
      <trkpt lat="45.03011" lon="0.07187">
        <ele>34.900016784668</ele>
        <time>2019-04-01T12:29:53.338Z</time>
      </trkpt>
      <trkpt lat="45.02845" lon="0.0712">
        <ele>35.447608947754</ele>
        <time>2019-04-01T12:30:56.925Z</time>
      </trkpt>
      <trkpt lat="45.02809" lon="0.06941">
        <ele>36.337463378906</ele>
        <time>2019-04-01T12:32:00.534Z</time>
      </trkpt>
      <trkpt lat="45.02801" lon="0.06898">
        <ele>35.417083740234</ele>
        <time>2019-04-01T12:33:04.148Z</time>
      </trkpt>
      <trkpt lat="45.02792" lon="0.06854">
        <ele>35</ele>
        <time>2019-04-01T12:34:07.767Z</time>
      </trkpt>
      <trkpt lat="45.02787" lon="0.06831">
        <ele>35</ele>
        <time>2019-04-01T12:35:11.389Z</time>
      </trkpt>
      <trkpt lat="45.02773" lon="0.06808">
        <ele>35</ele>
        <time>2019-04-01T12:36:15.014Z</time>
      </trkpt>
      <trkpt lat="45.02694" lon="0.06711">
        <ele>35.614692687988</ele>
        <time>2019-04-01T12:37:18.656Z</time>
      </trkpt>
      <trkpt lat="45.02622" lon="0.06549">
        <ele>33.047054290771</ele>
        <time>2019-04-01T12:38:22.319Z</time>
      </trkpt>
      <trkpt lat="45.02618" lon="0.0654">
        <ele>33.23908996582</ele>
        <time>2019-04-01T12:39:25.984Z</time>
      </trkpt>
      <trkpt lat="45.02615" lon="0.06532">
        <ele>33.264835357666</ele>
        <time>2019-04-01T12:40:29.650Z</time>
      </trkpt>
      <trkpt lat="45.02584" lon="0.06461">
        <ele>34.951526641846</ele>
        <time>2019-04-01T12:41:33.325Z</time>
      </trkpt>
      <trkpt lat="45.02464" lon="0.06494">
        <ele>35.6506690979</ele>
        <time>2019-04-01T12:42:37.020Z</time>
      </trkpt>
      <trkpt lat="45.02424" lon="0.06492">
        <ele>33.954936981201</ele>
        <time>2019-04-01T12:43:40.721Z</time>
      </trkpt>
      <trkpt lat="45.02424" lon="0.06492">
        <ele>33.954532623291</ele>
        <time>2019-04-01T12:44:44.422Z</time>
      </trkpt>
      <trkpt lat="45.02344" lon="0.06479">
        <ele>29.94638633728</ele>
        <time>2019-04-01T12:45:48.136Z</time>
      </trkpt>
      <trkpt lat="45.02321" lon="0.06494">
        <ele>28.398250579834</ele>
        <time>2019-04-01T12:46:51.854Z</time>
      </trkpt>
      <trkpt lat="45.02278" lon="0.06503">
        <ele>25.655418395996</ele>
        <time>2019-04-01T12:47:55.579Z</time>
      </trkpt>
      <trkpt lat="45.02142" lon="0.06508">
        <ele>24</ele>
        <time>2019-04-01T12:48:59.326Z</time>
      </trkpt>
      <trkpt lat="45.02034" lon="0.06493">
        <ele>24.795074462891</ele>
        <time>2019-04-01T12:50:03.090Z</time>
      </trkpt>
      <trkpt lat="45.01948" lon="0.0648">
        <ele>24.499008178711</ele>
        <time>2019-04-01T12:51:06.868Z</time>
      </trkpt>
      <trkpt lat="45.01896" lon="0.06459">
        <ele>24</ele>
        <time>2019-04-01T12:52:10.655Z</time>
      </trkpt>
      <trkpt lat="45.01798" lon="0.0641">
        <ele>23.067283630371</ele>
        <time>2019-04-01T12:53:14.458Z</time>
      </trkpt>
      <trkpt lat="45.01755" lon="0.06385">
        <ele>23</ele>
        <time>2019-04-01T12:54:18.269Z</time>
      </trkpt>
      <trkpt lat="45.01719" lon="0.06374">
        <ele>23</ele>
        <time>2019-04-01T12:55:22.086Z</time>
      </trkpt>
      <trkpt lat="45.01688" lon="0.06375">
        <ele>23.240146636963</ele>
        <time>2019-04-01T12:56:25.908Z</time>
      </trkpt>
      <trkpt lat="45.0166" lon="0.06396">
        <ele>23.347810745239</ele>
        <time>2019-04-01T12:57:29.735Z</time>
      </trkpt>
      <trkpt lat="45.01601" lon="0.06457">
        <ele>22.732440948486</ele>
        <time>2019-04-01T12:58:33.573Z</time>
      </trkpt>
      <trkpt lat="45.01571" lon="0.06482">
        <ele>22.075946807861</ele>
        <time>2019-04-01T12:59:37.417Z</time>
      </trkpt>
      <trkpt lat="45.01539" lon="0.06489">
        <ele>22</ele>
        <time>2019-04-01T13:00:41.266Z</time>
      </trkpt>
      <trkpt lat="45.01406" lon="0.06483">
        <ele>21.718315124512</ele>
        <time>2019-04-01T13:01:45.136Z</time>
      </trkpt>
      <trkpt lat="45.01296" lon="0.06488">
        <ele>25.505722045898</ele>
        <time>2019-04-01T13:02:49.024Z</time>
      </trkpt>
      <trkpt lat="45.01193" lon="0.06516">
        <ele>24.126586914062</ele>
        <time>2019-04-01T13:03:52.929Z</time>
      </trkpt>
      <trkpt lat="45.01186" lon="0.06518">
        <ele>24.029943466187</ele>
        <time>2019-04-01T13:04:56.835Z</time>
      </trkpt>
      <trkpt lat="45.01186" lon="0.06518">
        <ele>24.030042648315</ele>
        <time>2019-04-01T13:06:00.741Z</time>
      </trkpt>
      <trkpt lat="45.01134" lon="0.06529">
        <ele>24</ele>
        <time>2019-04-01T13:07:04.655Z</time>
      </trkpt>
      <trkpt lat="45.0112" lon="0.06525">
        <ele>24.061573028564</ele>
        <time>2019-04-01T13:08:08.572Z</time>
      </trkpt>
      <trkpt lat="45.01114" lon="0.06516">
        <ele>24.13890838623</ele>
        <time>2019-04-01T13:09:12.490Z</time>
      </trkpt>
      <trkpt lat="45.01104" lon="0.06515">
        <ele>24.261196136475</ele>
        <time>2019-04-01T13:10:16.410Z</time>
      </trkpt>
      <trkpt lat="45.01094" lon="0.0653">
        <ele>24.377048492432</ele>
        <time>2019-04-01T13:11:20.332Z</time>
      </trkpt>
      <trkpt lat="45.01072" lon="0.06547">
        <ele>24.688529968262</ele>
        <time>2019-04-01T13:12:24.258Z</time>
      </trkpt>
      <trkpt lat="45.00987" lon="0.06571">
        <ele>25</ele>
        <time>2019-04-01T13:13:28.198Z</time>
      </trkpt>
      <trkpt lat="45.00968" lon="0.06583">
        <ele>25</ele>
        <time>2019-04-01T13:14:32.141Z</time>
      </trkpt>
      <trkpt lat="45.00903" lon="0.06652">
        <ele>26.985729217529</ele>
        <time>2019-04-01T13:15:36.097Z</time>
      </trkpt>
      <trkpt lat="45.00882" lon="0.06666">
        <ele>27.362077713013</ele>
        <time>2019-04-01T13:16:40.057Z</time>
      </trkpt>
      <trkpt lat="45.00791" lon="0.0669">
        <ele>29.467861175537</ele>
        <time>2019-04-01T13:17:44.032Z</time>
      </trkpt>
      <trkpt lat="45.00754" lon="0.06693">
        <ele>29.659265518188</ele>
        <time>2019-04-01T13:18:48.013Z</time>
      </trkpt>
      <trkpt lat="45.00727" lon="0.06698">
        <ele>29.916715621948</ele>
        <time>2019-04-01T13:19:51.998Z</time>
      </trkpt>
      <trkpt lat="45.00701" lon="0.06704">
        <ele>30.474020004272</ele>
        <time>2019-04-01T13:20:55.987Z</time>
      </trkpt>
      <trkpt lat="45.00701" lon="0.06704">
        <ele>30.473518371582</ele>
        <time>2019-04-01T13:21:59.976Z</time>
      </trkpt>
      <trkpt lat="45.00654" lon="0.06706">
        <ele>33.273780822754</ele>
        <time>2019-04-01T13:23:03.973Z</time>
      </trkpt>
      <trkpt lat="45.00531" lon="0.06674">
        <ele>38.281055450439</ele>
        <time>2019-04-01T13:24:07.990Z</time>
      </trkpt>
      <trkpt lat="45.00376" lon="0.06755">
        <ele>38.471263885498</ele>
        <time>2019-04-01T13:25:12.033Z</time>
      </trkpt>
      <trkpt lat="45.00332" lon="0.06758">
        <ele>39.345752716064</ele>
        <time>2019-04-01T13:26:16.083Z</time>
      </trkpt>
      <trkpt lat="45" lon="0.06576">
        <ele>42.106147766113</ele>
        <time>2019-04-01T13:27:20.190Z</time>
      </trkpt>
      <trkpt lat="45" lon="0.06576">
        <ele>42.106250762939</ele>
        <time>2019-04-01T13:28:24.297Z</time>
      </trkpt>
      <trkpt lat="44.99945" lon="0.06538">
        <ele>39.585273742676</ele>
        <time>2019-04-01T13:29:28.414Z</time>
      </trkpt>
      <trkpt lat="44.99913" lon="0.06507">
        <ele>38.806491851807</ele>
        <time>2019-04-01T13:30:32.537Z</time>
      </trkpt>
      <trkpt lat="44.99856" lon="0.06421">
        <ele>38.696468353271</ele>
        <time>2019-04-01T13:31:36.674Z</time>
      </trkpt>
      <trkpt lat="44.99804" lon="0.0637">
        <ele>40.084945678711</ele>
        <time>2019-04-01T13:32:40.821Z</time>
      </trkpt>
      <trkpt lat="44.99726" lon="0.06265">
        <ele>44.114109039307</ele>
        <time>2019-04-01T13:33:44.985Z</time>
      </trkpt>
      <trkpt lat="44.9965" lon="0.06208">
        <ele>43.613971710205</ele>
        <time>2019-04-01T13:34:49.163Z</time>
      </trkpt>
      <trkpt lat="44.99447" lon="0.06081">
        <ele>40.942142486572</ele>
        <time>2019-04-01T13:35:53.376Z</time>
      </trkpt>
      <trkpt lat="44.99447" lon="0.06081">
        <ele>40.942241668701</ele>
        <time>2019-04-01T13:36:57.589Z</time>
      </trkpt>
      <trkpt lat="44.99406" lon="0.06049">
        <ele>41.218898773193</ele>
        <time>2019-04-01T13:38:01.810Z</time>
      </trkpt>
      <trkpt lat="44.99364" lon="0.05999">
        <ele>42.181159973145</ele>
        <time>2019-04-01T13:39:06.040Z</time>
      </trkpt>
      <trkpt lat="44.99304" lon="0.0584">
        <ele>41.838157653809</ele>
        <time>2019-04-01T13:40:10.290Z</time>
      </trkpt>
      <trkpt lat="44.99266" lon="0.05768">
        <ele>41.947406768799</ele>
        <time>2019-04-01T13:41:14.550Z</time>
      </trkpt>
      <trkpt lat="44.99132" lon="0.05606">
        <ele>42.086074829102</ele>
        <time>2019-04-01T13:42:18.839Z</time>
      </trkpt>
      <trkpt lat="44.99031" lon="0.0548">
        <ele>42.262187957764</ele>
        <time>2019-04-01T13:43:23.149Z</time>
      </trkpt>
      <trkpt lat="44.98963" lon="0.05383">
        <ele>43.919021606445</ele>
        <time>2019-04-01T13:44:27.475Z</time>
      </trkpt>
      <trkpt lat="44.98892" lon="0.05304">
        <ele>44.73620223999</ele>
        <time>2019-04-01T13:45:31.815Z</time>
      </trkpt>
      <trkpt lat="44.98848" lon="0.05266">
        <ele>45.62181854248</ele>
        <time>2019-04-01T13:46:36.163Z</time>
      </trkpt>
      <trkpt lat="44.98768" lon="0.05193">
        <ele>47.382019042969</ele>
        <time>2019-04-01T13:47:40.527Z</time>
      </trkpt>
      <trkpt lat="44.9873" lon="0.05139">
        <ele>48.582164764404</ele>
        <time>2019-04-01T13:48:44.899Z</time>
      </trkpt>
      <trkpt lat="44.9873" lon="0.05139">
        <ele>48.582263946533</ele>
        <time>2019-04-01T13:49:49.271Z</time>
      </trkpt>
      <trkpt lat="44.98696" lon="0.05062">
        <ele>52.21821975708</ele>
        <time>2019-04-01T13:50:53.654Z</time>
      </trkpt>
      <trkpt lat="44.98641" lon="0.04902">
        <ele>56.409526824951</ele>
        <time>2019-04-01T13:51:58.057Z</time>
      </trkpt>
      <trkpt lat="44.98586" lon="0.04775">
        <ele>54.81294631958</ele>
        <time>2019-04-01T13:53:02.477Z</time>
      </trkpt>
      <trkpt lat="44.98538" lon="0.0463">
        <ele>55.859268188477</ele>
        <time>2019-04-01T13:54:06.915Z</time>
      </trkpt>
      <trkpt lat="44.98504" lon="0.0458">
        <ele>57.739624023438</ele>
        <time>2019-04-01T13:55:11.361Z</time>
      </trkpt>
      <trkpt lat="44.98458" lon="0.04552">
        <ele>58.531383514404</ele>
        <time>2019-04-01T13:56:15.815Z</time>
      </trkpt>
      <trkpt lat="44.98418" lon="0.0455">
        <ele>60.074131011963</ele>
        <time>2019-04-01T13:57:20.275Z</time>
      </trkpt>
      <trkpt lat="44.98332" lon="0.04566">
        <ele>60.368709564209</ele>
        <time>2019-04-01T13:58:24.749Z</time>
      </trkpt>
      <trkpt lat="44.98309" lon="0.04561">
        <ele>60.339408874512</ele>
        <time>2019-04-01T13:59:29.227Z</time>
      </trkpt>
      <trkpt lat="44.98061" lon="0.04434">
        <ele>59.960266113281</ele>
        <time>2019-04-01T14:00:33.747Z</time>
      </trkpt>
      <trkpt lat="44.98001" lon="0.04391">
        <ele>61.764755249023</ele>
        <time>2019-04-01T14:01:38.278Z</time>
      </trkpt>
      <trkpt lat="44.98001" lon="0.04391">
        <ele>61.764652252197</ele>
        <time>2019-04-01T14:02:42.809Z</time>
      </trkpt>
      <trkpt lat="44.97859" lon="0.04181">
        <ele>62.282997131348</ele>
        <time>2019-04-01T14:03:47.373Z</time>
      </trkpt>
      <trkpt lat="44.97838" lon="0.0416">
        <ele>61.529956817627</ele>
        <time>2019-04-01T14:04:51.941Z</time>
      </trkpt>
      <trkpt lat="44.97761" lon="0.04113">
        <ele>61.095081329346</ele>
        <time>2019-04-01T14:05:56.522Z</time>
      </trkpt>
      <trkpt lat="44.97714" lon="0.04072">
        <ele>62.774936676025</ele>
        <time>2019-04-01T14:07:01.112Z</time>
      </trkpt>
      <trkpt lat="44.97587" lon="0.03928">
        <ele>64.248184204102</ele>
        <time>2019-04-01T14:08:05.728Z</time>
      </trkpt>
      <trkpt lat="44.9752" lon="0.0382">
        <ele>60.819190979004</ele>
        <time>2019-04-01T14:09:10.360Z</time>
      </trkpt>
      <trkpt lat="44.97485" lon="0.03795">
        <ele>58.77267074585</ele>
        <time>2019-04-01T14:10:14.999Z</time>
      </trkpt>
      <trkpt lat="44.97485" lon="0.03795">
        <ele>58.772472381592</ele>
        <time>2019-04-01T14:11:19.638Z</time>
      </trkpt>
      <trkpt lat="44.9732" lon="0.03786">
        <ele>58.416584014893</ele>
        <time>2019-04-01T14:12:24.303Z</time>
      </trkpt>
      <trkpt lat="44.97265" lon="0.03795">
        <ele>57.781734466553</ele>
        <time>2019-04-01T14:13:28.977Z</time>
      </trkpt>
      <trkpt lat="44.97199" lon="0.0379">
        <ele>54.293502807617</ele>
        <time>2019-04-01T14:14:33.662Z</time>
      </trkpt>
      <trkpt lat="44.97185" lon="0.03804">
        <ele>53.373397827148</ele>
        <time>2019-04-01T14:15:38.349Z</time>
      </trkpt>
      <trkpt lat="44.9715" lon="0.03885">
        <ele>52.575668334961</ele>
        <time>2019-04-01T14:16:43.047Z</time>
      </trkpt>
      <trkpt lat="44.97116" lon="0.03941">
        <ele>54.686363220215</ele>
        <time>2019-04-01T14:17:47.754Z</time>
      </trkpt>
      <trkpt lat="44.96993" lon="0.04017">
        <ele>54.227939605713</ele>
        <time>2019-04-01T14:18:52.482Z</time>
      </trkpt>
      <trkpt lat="44.96993" lon="0.04017">
        <ele>54.227836608887</ele>
        <time>2019-04-01T14:19:57.210Z</time>
      </trkpt>
      <trkpt lat="44.9692" lon="0.04083">
        <ele>55.141597747803</ele>
        <time>2019-04-01T14:21:01.952Z</time>
      </trkpt>
      <trkpt lat="44.96841" lon="0.04181">
        <ele>55.378841400146</ele>
        <time>2019-04-01T14:22:06.711Z</time>
      </trkpt>
      <trkpt lat="44.96676" lon="0.0436">
        <ele>54.055362701416</ele>
        <time>2019-04-01T14:23:11.503Z</time>
      </trkpt>
      <trkpt lat="44.96644" lon="0.04406">
        <ele>53.578372955322</ele>
        <time>2019-04-01T14:24:16.302Z</time>
      </trkpt>
      <trkpt lat="44.96587" lon="0.04514">
        <ele>53.657512664795</ele>
        <time>2019-04-01T14:25:21.117Z</time>
      </trkpt>
      <trkpt lat="44.96439" lon="0.04743">
        <ele>53.776103973389</ele>
        <time>2019-04-01T14:26:25.967Z</time>
      </trkpt>
      <trkpt lat="44.96364" lon="0.04826">
        <ele>51.774772644043</ele>
        <time>2019-04-01T14:27:30.832Z</time>
      </trkpt>
      <trkpt lat="44.96345" lon="0.04841">
        <ele>52.656536102295</ele>
        <time>2019-04-01T14:28:35.701Z</time>
      </trkpt>
      <trkpt lat="44.96283" lon="0.04885">
        <ele>54.098388671875</ele>
        <time>2019-04-01T14:29:40.581Z</time>
      </trkpt>
      <trkpt lat="44.96211" lon="0.04917">
        <ele>54.536308288574</ele>
        <time>2019-04-01T14:30:45.473Z</time>
      </trkpt>
      <trkpt lat="44.96211" lon="0.04917">
        <ele>54.536308288574</ele>
        <time>2019-04-01T14:31:50.365Z</time>
      </trkpt>
      <trkpt lat="44.95942" lon="0.05052">
        <ele>58.338310241699</ele>
        <time>2019-04-01T14:32:55.302Z</time>
      </trkpt>
      <trkpt lat="44.95628" lon="0.05254">
        <ele>63.885726928711</ele>
        <time>2019-04-01T14:34:00.295Z</time>
      </trkpt>
      <trkpt lat="44.9554" lon="0.05292">
        <ele>66.087257385254</ele>
        <time>2019-04-01T14:35:05.302Z</time>
      </trkpt>
      <trkpt lat="44.9546" lon="0.05315">
        <ele>70.359313964844</ele>
        <time>2019-04-01T14:36:10.323Z</time>
      </trkpt>
      <trkpt lat="44.95459" lon="0.05316">
        <ele>70.395935058594</ele>
        <time>2019-04-01T14:37:15.344Z</time>
      </trkpt>
      <trkpt lat="44.95459" lon="0.05316">
        <ele>70.395133972168</ele>
        <time>2019-04-01T14:38:20.365Z</time>
      </trkpt>
      <trkpt lat="44.95446" lon="0.05319">
        <ele>70.631698608398</ele>
        <time>2019-04-01T14:39:25.388Z</time>
      </trkpt>
      <trkpt lat="44.95365" lon="0.05341">
        <ele>74.561981201172</ele>
        <time>2019-04-01T14:40:30.424Z</time>
      </trkpt>
      <trkpt lat="44.95249" lon="0.05389">
        <ele>81.907646179199</ele>
        <time>2019-04-01T14:41:35.479Z</time>
      </trkpt>
      <trkpt lat="44.9507" lon="0.05503">
        <ele>91.43733215332</ele>
        <time>2019-04-01T14:42:40.566Z</time>
      </trkpt>
      <trkpt lat="44.9507" lon="0.05503">
        <ele>91.437629699707</ele>
        <time>2019-04-01T14:43:45.653Z</time>
      </trkpt>
      <trkpt lat="44.94948" lon="0.05607">
        <ele>93.659156799316</ele>
        <time>2019-04-01T14:44:50.763Z</time>
      </trkpt>
      <trkpt lat="44.94857" lon="0.0569">
        <ele>101.24594116211</ele>
        <time>2019-04-01T14:45:55.890Z</time>
      </trkpt>
    </trkseg>
  </trk>
</gpx>